<?xml version="1.0" encoding="UTF-8" standalone="no" ?>
<gpx xmlns="http://www.topografix.com/GPX/1/1" xmlns:xsi="http://www.w3.org/2001/XMLSchema-instance" xsi:schemaLocation="http://www.topografix.com/GPX/1/1 http://www.topografix.com/GPX/1/1/gpx.xsd" version="1.1" creator="VisuGPX - https://www.visugpx.com">
  <metadata>
    <name>83 - V - Trans en provence </name>
    <desc><![CDATA[83 - V - Trans en provence : Pouiraque - Cassivet 
2023-01-27]]></desc>
  </metadata>
  <trk>
    <name><![CDATA[Trans en provence Pouiraque Cassivet 2023-01-27-01]]></name>
    <trkseg>
      <trkpt lat="43.50447" lon="6.45405">
        <ele>214.4</ele>
        <time>2023-01-27T12:52:49Z</time>
      </trkpt>
      <trkpt lat="43.50447" lon="6.45405">
        <ele>214</ele>
        <time>2023-01-27T12:52:48Z</time>
      </trkpt>
      <trkpt lat="43.50447" lon="6.45405">
        <ele>214</ele>
        <time>2023-01-27T12:52:48Z</time>
      </trkpt>
      <trkpt lat="43.50447" lon="6.45405">
        <ele>214</ele>
        <time>2023-01-27T12:52:48Z</time>
      </trkpt>
      <trkpt lat="43.50455" lon="6.454">
        <ele>214.5</ele>
        <time>2023-01-27T12:54:31Z</time>
      </trkpt>
      <trkpt lat="43.50449" lon="6.45391">
        <ele>214.3</ele>
        <time>2023-01-27T12:54:38Z</time>
      </trkpt>
      <trkpt lat="43.50442" lon="6.45383">
        <ele>214.1</ele>
        <time>2023-01-27T12:55:17Z</time>
      </trkpt>
      <trkpt lat="43.50433" lon="6.45377">
        <ele>214.3</ele>
        <time>2023-01-27T12:55:59Z</time>
      </trkpt>
      <trkpt lat="43.50425" lon="6.45368">
        <ele>214.1</ele>
        <time>2023-01-27T12:56:09Z</time>
      </trkpt>
      <trkpt lat="43.50416" lon="6.45367">
        <ele>213.8</ele>
        <time>2023-01-27T12:56:22Z</time>
      </trkpt>
      <trkpt lat="43.50411" lon="6.45378">
        <ele>214.2</ele>
        <time>2023-01-27T12:56:33Z</time>
      </trkpt>
      <trkpt lat="43.50407" lon="6.4539">
        <ele>215.1</ele>
        <time>2023-01-27T12:56:45Z</time>
      </trkpt>
      <trkpt lat="43.50408" lon="6.45403">
        <ele>216.3</ele>
        <time>2023-01-27T12:56:58Z</time>
      </trkpt>
      <trkpt lat="43.50408" lon="6.45416">
        <ele>217.5</ele>
        <time>2023-01-27T12:57:10Z</time>
      </trkpt>
      <trkpt lat="43.50409" lon="6.45428">
        <ele>218.3</ele>
        <time>2023-01-27T12:57:21Z</time>
      </trkpt>
      <trkpt lat="43.50411" lon="6.45441">
        <ele>219.1</ele>
        <time>2023-01-27T12:57:31Z</time>
      </trkpt>
      <trkpt lat="43.50412" lon="6.45454">
        <ele>219.5</ele>
        <time>2023-01-27T12:57:42Z</time>
      </trkpt>
      <trkpt lat="43.50412" lon="6.45466">
        <ele>219.7</ele>
        <time>2023-01-27T12:57:52Z</time>
      </trkpt>
      <trkpt lat="43.50415" lon="6.45479">
        <ele>220.2</ele>
        <time>2023-01-27T12:58:00Z</time>
      </trkpt>
      <trkpt lat="43.50418" lon="6.45492">
        <ele>220.5</ele>
        <time>2023-01-27T12:58:09Z</time>
      </trkpt>
      <trkpt lat="43.5042" lon="6.45504">
        <ele>221.3</ele>
        <time>2023-01-27T12:58:17Z</time>
      </trkpt>
      <trkpt lat="43.50421" lon="6.45517">
        <ele>223.5</ele>
        <time>2023-01-27T12:58:29Z</time>
      </trkpt>
      <trkpt lat="43.50422" lon="6.4553">
        <ele>224.6</ele>
        <time>2023-01-27T12:58:39Z</time>
      </trkpt>
      <trkpt lat="43.50423" lon="6.45544">
        <ele>225.3</ele>
        <time>2023-01-27T12:58:48Z</time>
      </trkpt>
      <trkpt lat="43.50424" lon="6.45557">
        <ele>225.7</ele>
        <time>2023-01-27T12:58:57Z</time>
      </trkpt>
      <trkpt lat="43.50427" lon="6.45569">
        <ele>225.8</ele>
        <time>2023-01-27T12:59:05Z</time>
      </trkpt>
      <trkpt lat="43.50427" lon="6.45582">
        <ele>226.2</ele>
        <time>2023-01-27T12:59:15Z</time>
      </trkpt>
      <trkpt lat="43.50429" lon="6.45595">
        <ele>226.6</ele>
        <time>2023-01-27T12:59:23Z</time>
      </trkpt>
      <trkpt lat="43.50434" lon="6.45606">
        <ele>227.1</ele>
        <time>2023-01-27T12:59:28Z</time>
      </trkpt>
      <trkpt lat="43.50437" lon="6.45618">
        <ele>227.8</ele>
        <time>2023-01-27T12:59:41Z</time>
      </trkpt>
      <trkpt lat="43.50437" lon="6.45632">
        <ele>228.3</ele>
        <time>2023-01-27T12:59:51Z</time>
      </trkpt>
      <trkpt lat="43.50436" lon="6.45645">
        <ele>228.2</ele>
        <time>2023-01-27T13:00:02Z</time>
      </trkpt>
      <trkpt lat="43.50433" lon="6.45657">
        <ele>228.7</ele>
        <time>2023-01-27T13:00:13Z</time>
      </trkpt>
      <trkpt lat="43.50434" lon="6.45671">
        <ele>228.9</ele>
        <time>2023-01-27T13:00:22Z</time>
      </trkpt>
      <trkpt lat="43.50436" lon="6.45684">
        <ele>229.7</ele>
        <time>2023-01-27T13:00:29Z</time>
      </trkpt>
      <trkpt lat="43.50435" lon="6.45696">
        <ele>230.4</ele>
        <time>2023-01-27T13:00:38Z</time>
      </trkpt>
      <trkpt lat="43.50432" lon="6.45709">
        <ele>230.7</ele>
        <time>2023-01-27T13:00:46Z</time>
      </trkpt>
      <trkpt lat="43.50431" lon="6.45721">
        <ele>231.3</ele>
        <time>2023-01-27T13:00:54Z</time>
      </trkpt>
      <trkpt lat="43.50429" lon="6.45733">
        <ele>231.8</ele>
        <time>2023-01-27T13:01:02Z</time>
      </trkpt>
      <trkpt lat="43.50429" lon="6.45746">
        <ele>232.2</ele>
        <time>2023-01-27T13:01:11Z</time>
      </trkpt>
      <trkpt lat="43.50431" lon="6.45759">
        <ele>232.8</ele>
        <time>2023-01-27T13:01:18Z</time>
      </trkpt>
      <trkpt lat="43.50432" lon="6.45772">
        <ele>233.2</ele>
        <time>2023-01-27T13:01:27Z</time>
      </trkpt>
      <trkpt lat="43.50433" lon="6.45785">
        <ele>234.2</ele>
        <time>2023-01-27T13:01:36Z</time>
      </trkpt>
      <trkpt lat="43.50434" lon="6.45797">
        <ele>235.4</ele>
        <time>2023-01-27T13:01:45Z</time>
      </trkpt>
      <trkpt lat="43.50435" lon="6.45811">
        <ele>236.9</ele>
        <time>2023-01-27T13:01:55Z</time>
      </trkpt>
      <trkpt lat="43.50437" lon="6.45824">
        <ele>237.8</ele>
        <time>2023-01-27T13:02:03Z</time>
      </trkpt>
      <trkpt lat="43.50436" lon="6.45838">
        <ele>238.8</ele>
        <time>2023-01-27T13:02:14Z</time>
      </trkpt>
      <trkpt lat="43.50434" lon="6.4585">
        <ele>239.8</ele>
        <time>2023-01-27T13:02:23Z</time>
      </trkpt>
      <trkpt lat="43.50434" lon="6.45864">
        <ele>240.4</ele>
        <time>2023-01-27T13:02:32Z</time>
      </trkpt>
      <trkpt lat="43.50432" lon="6.45877">
        <ele>241</ele>
        <time>2023-01-27T13:02:42Z</time>
      </trkpt>
      <trkpt lat="43.50428" lon="6.45889">
        <ele>241.7</ele>
        <time>2023-01-27T13:02:53Z</time>
      </trkpt>
      <trkpt lat="43.50427" lon="6.45903">
        <ele>242.6</ele>
        <time>2023-01-27T13:03:02Z</time>
      </trkpt>
      <trkpt lat="43.50427" lon="6.45916">
        <ele>243.6</ele>
        <time>2023-01-27T13:03:12Z</time>
      </trkpt>
      <trkpt lat="43.50431" lon="6.45927">
        <ele>245.1</ele>
        <time>2023-01-27T13:03:24Z</time>
      </trkpt>
      <trkpt lat="43.50438" lon="6.45935">
        <ele>246.5</ele>
        <time>2023-01-27T13:03:37Z</time>
      </trkpt>
      <trkpt lat="43.50447" lon="6.45941">
        <ele>247.3</ele>
        <time>2023-01-27T13:03:49Z</time>
      </trkpt>
      <trkpt lat="43.50454" lon="6.4595">
        <ele>248.6</ele>
        <time>2023-01-27T13:04:02Z</time>
      </trkpt>
      <trkpt lat="43.50462" lon="6.45956">
        <ele>249.5</ele>
        <time>2023-01-27T13:04:14Z</time>
      </trkpt>
      <trkpt lat="43.50471" lon="6.45964">
        <ele>250.4</ele>
        <time>2023-01-27T13:04:25Z</time>
      </trkpt>
      <trkpt lat="43.50479" lon="6.45971">
        <ele>251.8</ele>
        <time>2023-01-27T13:04:38Z</time>
      </trkpt>
      <trkpt lat="43.50485" lon="6.4598">
        <ele>253.5</ele>
        <time>2023-01-27T13:04:51Z</time>
      </trkpt>
      <trkpt lat="43.50493" lon="6.45989">
        <ele>255.5</ele>
        <time>2023-01-27T13:05:05Z</time>
      </trkpt>
      <trkpt lat="43.505" lon="6.45998">
        <ele>256.4</ele>
        <time>2023-01-27T13:05:13Z</time>
      </trkpt>
      <trkpt lat="43.50508" lon="6.46006">
        <ele>257.3</ele>
        <time>2023-01-27T13:05:22Z</time>
      </trkpt>
      <trkpt lat="43.50513" lon="6.46016">
        <ele>258.8</ele>
        <time>2023-01-27T13:05:35Z</time>
      </trkpt>
      <trkpt lat="43.50518" lon="6.46027">
        <ele>259.8</ele>
        <time>2023-01-27T13:05:42Z</time>
      </trkpt>
      <trkpt lat="43.50521" lon="6.4604">
        <ele>261.6</ele>
        <time>2023-01-27T13:05:52Z</time>
      </trkpt>
      <trkpt lat="43.50524" lon="6.46052">
        <ele>263</ele>
        <time>2023-01-27T13:06:02Z</time>
      </trkpt>
      <trkpt lat="43.50526" lon="6.46065">
        <ele>266.1</ele>
        <time>2023-01-27T13:06:25Z</time>
      </trkpt>
      <trkpt lat="43.50522" lon="6.46078">
        <ele>267</ele>
        <time>2023-01-27T13:06:32Z</time>
      </trkpt>
      <trkpt lat="43.50522" lon="6.46091">
        <ele>267.3</ele>
        <time>2023-01-27T13:06:44Z</time>
      </trkpt>
      <trkpt lat="43.50522" lon="6.46104">
        <ele>267.2</ele>
        <time>2023-01-27T13:06:54Z</time>
      </trkpt>
      <trkpt lat="43.50522" lon="6.46116">
        <ele>267.4</ele>
        <time>2023-01-27T13:07:05Z</time>
      </trkpt>
      <trkpt lat="43.50526" lon="6.46128">
        <ele>266.5</ele>
        <time>2023-01-27T13:08:07Z</time>
      </trkpt>
      <trkpt lat="43.50532" lon="6.46137">
        <ele>266.5</ele>
        <time>2023-01-27T13:08:28Z</time>
      </trkpt>
      <trkpt lat="43.50542" lon="6.46138">
        <ele>266</ele>
        <time>2023-01-27T13:08:47Z</time>
      </trkpt>
      <trkpt lat="43.50551" lon="6.46137">
        <ele>266.8</ele>
        <time>2023-01-27T13:08:56Z</time>
      </trkpt>
      <trkpt lat="43.5056" lon="6.46139">
        <ele>267.5</ele>
        <time>2023-01-27T13:09:06Z</time>
      </trkpt>
      <trkpt lat="43.5057" lon="6.4614">
        <ele>268.6</ele>
        <time>2023-01-27T13:09:21Z</time>
      </trkpt>
      <trkpt lat="43.50579" lon="6.46143">
        <ele>269.5</ele>
        <time>2023-01-27T13:09:31Z</time>
      </trkpt>
      <trkpt lat="43.50588" lon="6.46145">
        <ele>270.5</ele>
        <time>2023-01-27T13:09:43Z</time>
      </trkpt>
      <trkpt lat="43.50598" lon="6.46146">
        <ele>271.9</ele>
        <time>2023-01-27T13:09:58Z</time>
      </trkpt>
      <trkpt lat="43.50607" lon="6.4615">
        <ele>273.1</ele>
        <time>2023-01-27T13:10:17Z</time>
      </trkpt>
      <trkpt lat="43.50615" lon="6.46156">
        <ele>273.7</ele>
        <time>2023-01-27T13:10:27Z</time>
      </trkpt>
      <trkpt lat="43.50621" lon="6.46167">
        <ele>274.1</ele>
        <time>2023-01-27T13:10:39Z</time>
      </trkpt>
      <trkpt lat="43.50627" lon="6.46175">
        <ele>274.5</ele>
        <time>2023-01-27T13:10:48Z</time>
      </trkpt>
      <trkpt lat="43.50636" lon="6.46182">
        <ele>275.2</ele>
        <time>2023-01-27T13:10:57Z</time>
      </trkpt>
      <trkpt lat="43.50641" lon="6.46192">
        <ele>275</ele>
        <time>2023-01-27T13:11:12Z</time>
      </trkpt>
      <trkpt lat="43.50649" lon="6.46199">
        <ele>275.6</ele>
        <time>2023-01-27T13:11:21Z</time>
      </trkpt>
      <trkpt lat="43.50656" lon="6.46209">
        <ele>276.1</ele>
        <time>2023-01-27T13:11:29Z</time>
      </trkpt>
      <trkpt lat="43.50662" lon="6.46219">
        <ele>276.3</ele>
        <time>2023-01-27T13:11:38Z</time>
      </trkpt>
      <trkpt lat="43.5067" lon="6.46227">
        <ele>276.4</ele>
        <time>2023-01-27T13:11:45Z</time>
      </trkpt>
      <trkpt lat="43.50677" lon="6.46237">
        <ele>276.8</ele>
        <time>2023-01-27T13:11:53Z</time>
      </trkpt>
      <trkpt lat="43.50684" lon="6.46246">
        <ele>276.6</ele>
        <time>2023-01-27T13:12:01Z</time>
      </trkpt>
      <trkpt lat="43.50691" lon="6.46255">
        <ele>276.5</ele>
        <time>2023-01-27T13:12:10Z</time>
      </trkpt>
      <trkpt lat="43.50697" lon="6.46264">
        <ele>276.4</ele>
        <time>2023-01-27T13:12:18Z</time>
      </trkpt>
      <trkpt lat="43.50704" lon="6.46272">
        <ele>275.8</ele>
        <time>2023-01-27T13:12:29Z</time>
      </trkpt>
      <trkpt lat="43.50714" lon="6.46277">
        <ele>275.7</ele>
        <time>2023-01-27T13:12:37Z</time>
      </trkpt>
      <trkpt lat="43.50722" lon="6.46284">
        <ele>275.6</ele>
        <time>2023-01-27T13:12:46Z</time>
      </trkpt>
      <trkpt lat="43.50728" lon="6.46295">
        <ele>275.4</ele>
        <time>2023-01-27T13:12:55Z</time>
      </trkpt>
      <trkpt lat="43.50737" lon="6.46302">
        <ele>275.1</ele>
        <time>2023-01-27T13:13:03Z</time>
      </trkpt>
      <trkpt lat="43.50749" lon="6.463">
        <ele>276.2</ele>
        <time>2023-01-27T13:13:15Z</time>
      </trkpt>
      <trkpt lat="43.50758" lon="6.46298">
        <ele>276.7</ele>
        <time>2023-01-27T13:13:21Z</time>
      </trkpt>
      <trkpt lat="43.50767" lon="6.46297">
        <ele>276.4</ele>
        <time>2023-01-27T13:13:28Z</time>
      </trkpt>
      <trkpt lat="43.50777" lon="6.46296">
        <ele>276</ele>
        <time>2023-01-27T13:13:36Z</time>
      </trkpt>
      <trkpt lat="43.50786" lon="6.46291">
        <ele>275.8</ele>
        <time>2023-01-27T13:13:50Z</time>
      </trkpt>
      <trkpt lat="43.50796" lon="6.46289">
        <ele>275.4</ele>
        <time>2023-01-27T13:13:58Z</time>
      </trkpt>
      <trkpt lat="43.50803" lon="6.46281">
        <ele>274.9</ele>
        <time>2023-01-27T13:14:09Z</time>
      </trkpt>
      <trkpt lat="43.5081" lon="6.46274">
        <ele>275.6</ele>
        <time>2023-01-27T13:14:20Z</time>
      </trkpt>
      <trkpt lat="43.50819" lon="6.46278">
        <ele>275.5</ele>
        <time>2023-01-27T13:14:45Z</time>
      </trkpt>
      <trkpt lat="43.50827" lon="6.46271">
        <ele>275.3</ele>
        <time>2023-01-27T13:15:02Z</time>
      </trkpt>
      <trkpt lat="43.50836" lon="6.46266">
        <ele>275.8</ele>
        <time>2023-01-27T13:15:14Z</time>
      </trkpt>
      <trkpt lat="43.50845" lon="6.46261">
        <ele>276</ele>
        <time>2023-01-27T13:15:26Z</time>
      </trkpt>
      <trkpt lat="43.50853" lon="6.46255">
        <ele>276.5</ele>
        <time>2023-01-27T13:15:36Z</time>
      </trkpt>
      <trkpt lat="43.50862" lon="6.46248">
        <ele>277</ele>
        <time>2023-01-27T13:15:45Z</time>
      </trkpt>
      <trkpt lat="43.50871" lon="6.46244">
        <ele>277.5</ele>
        <time>2023-01-27T13:15:53Z</time>
      </trkpt>
      <trkpt lat="43.5088" lon="6.4624">
        <ele>278.1</ele>
        <time>2023-01-27T13:16:01Z</time>
      </trkpt>
      <trkpt lat="43.50889" lon="6.46234">
        <ele>278.4</ele>
        <time>2023-01-27T13:16:13Z</time>
      </trkpt>
      <trkpt lat="43.50898" lon="6.46237">
        <ele>277.7</ele>
        <time>2023-01-27T13:16:27Z</time>
      </trkpt>
      <trkpt lat="43.50906" lon="6.46244">
        <ele>276.9</ele>
        <time>2023-01-27T13:16:39Z</time>
      </trkpt>
      <trkpt lat="43.50914" lon="6.4625">
        <ele>276.3</ele>
        <time>2023-01-27T13:16:49Z</time>
      </trkpt>
      <trkpt lat="43.5092" lon="6.4626">
        <ele>276</ele>
        <time>2023-01-27T13:16:59Z</time>
      </trkpt>
      <trkpt lat="43.50928" lon="6.46269">
        <ele>276.3</ele>
        <time>2023-01-27T13:17:09Z</time>
      </trkpt>
      <trkpt lat="43.50935" lon="6.46277">
        <ele>276.2</ele>
        <time>2023-01-27T13:17:16Z</time>
      </trkpt>
      <trkpt lat="43.50942" lon="6.46287">
        <ele>276.2</ele>
        <time>2023-01-27T13:17:23Z</time>
      </trkpt>
      <trkpt lat="43.50949" lon="6.46297">
        <ele>276.3</ele>
        <time>2023-01-27T13:17:31Z</time>
      </trkpt>
      <trkpt lat="43.50954" lon="6.46308">
        <ele>276</ele>
        <time>2023-01-27T13:17:40Z</time>
      </trkpt>
      <trkpt lat="43.5096" lon="6.46318">
        <ele>275.6</ele>
        <time>2023-01-27T13:17:47Z</time>
      </trkpt>
      <trkpt lat="43.50966" lon="6.46328">
        <ele>275.3</ele>
        <time>2023-01-27T13:17:55Z</time>
      </trkpt>
      <trkpt lat="43.50966" lon="6.46343">
        <ele>273.9</ele>
        <time>2023-01-27T13:18:06Z</time>
      </trkpt>
      <trkpt lat="43.50968" lon="6.46355">
        <ele>273.2</ele>
        <time>2023-01-27T13:18:12Z</time>
      </trkpt>
      <trkpt lat="43.50973" lon="6.46366">
        <ele>272.6</ele>
        <time>2023-01-27T13:18:19Z</time>
      </trkpt>
      <trkpt lat="43.50979" lon="6.46376">
        <ele>272</ele>
        <time>2023-01-27T13:18:25Z</time>
      </trkpt>
      <trkpt lat="43.50986" lon="6.46384">
        <ele>271.5</ele>
        <time>2023-01-27T13:18:36Z</time>
      </trkpt>
      <trkpt lat="43.50993" lon="6.46392">
        <ele>270.6</ele>
        <time>2023-01-27T13:18:44Z</time>
      </trkpt>
      <trkpt lat="43.51002" lon="6.46394">
        <ele>269.3</ele>
        <time>2023-01-27T13:18:52Z</time>
      </trkpt>
      <trkpt lat="43.51011" lon="6.46393">
        <ele>268.4</ele>
        <time>2023-01-27T13:19:01Z</time>
      </trkpt>
      <trkpt lat="43.5102" lon="6.46391">
        <ele>267.4</ele>
        <time>2023-01-27T13:19:13Z</time>
      </trkpt>
      <trkpt lat="43.5103" lon="6.4639">
        <ele>265.9</ele>
        <time>2023-01-27T13:19:24Z</time>
      </trkpt>
      <trkpt lat="43.51037" lon="6.46381">
        <ele>264.1</ele>
        <time>2023-01-27T13:19:36Z</time>
      </trkpt>
      <trkpt lat="43.51042" lon="6.46369">
        <ele>263.6</ele>
        <time>2023-01-27T13:19:43Z</time>
      </trkpt>
      <trkpt lat="43.51045" lon="6.46357">
        <ele>263.6</ele>
        <time>2023-01-27T13:19:52Z</time>
      </trkpt>
      <trkpt lat="43.51048" lon="6.46344">
        <ele>263.8</ele>
        <time>2023-01-27T13:20:02Z</time>
      </trkpt>
      <trkpt lat="43.51054" lon="6.46333">
        <ele>263.2</ele>
        <time>2023-01-27T13:20:09Z</time>
      </trkpt>
      <trkpt lat="43.51059" lon="6.46323">
        <ele>262.6</ele>
        <time>2023-01-27T13:20:19Z</time>
      </trkpt>
      <trkpt lat="43.51063" lon="6.46311">
        <ele>262.5</ele>
        <time>2023-01-27T13:20:29Z</time>
      </trkpt>
      <trkpt lat="43.51065" lon="6.46299">
        <ele>262.3</ele>
        <time>2023-01-27T13:20:39Z</time>
      </trkpt>
      <trkpt lat="43.51071" lon="6.4629">
        <ele>262.4</ele>
        <time>2023-01-27T13:20:52Z</time>
      </trkpt>
      <trkpt lat="43.51078" lon="6.4628">
        <ele>261.9</ele>
        <time>2023-01-27T13:21:04Z</time>
      </trkpt>
      <trkpt lat="43.51087" lon="6.46278">
        <ele>260.7</ele>
        <time>2023-01-27T13:23:03Z</time>
      </trkpt>
      <trkpt lat="43.51093" lon="6.46288">
        <ele>260</ele>
        <time>2023-01-27T13:23:44Z</time>
      </trkpt>
      <trkpt lat="43.51095" lon="6.46301">
        <ele>258.4</ele>
        <time>2023-01-27T13:23:59Z</time>
      </trkpt>
      <trkpt lat="43.51094" lon="6.46314">
        <ele>257.5</ele>
        <time>2023-01-27T13:24:11Z</time>
      </trkpt>
      <trkpt lat="43.51099" lon="6.46324">
        <ele>257</ele>
        <time>2023-01-27T13:24:24Z</time>
      </trkpt>
      <trkpt lat="43.51107" lon="6.46332">
        <ele>256.5</ele>
        <time>2023-01-27T13:24:37Z</time>
      </trkpt>
      <trkpt lat="43.51112" lon="6.46342">
        <ele>256.7</ele>
        <time>2023-01-27T13:24:48Z</time>
      </trkpt>
      <trkpt lat="43.51112" lon="6.46355">
        <ele>258.1</ele>
        <time>2023-01-27T13:24:59Z</time>
      </trkpt>
      <trkpt lat="43.51114" lon="6.46368">
        <ele>259.3</ele>
        <time>2023-01-27T13:25:10Z</time>
      </trkpt>
      <trkpt lat="43.51114" lon="6.46382">
        <ele>259.9</ele>
        <time>2023-01-27T13:25:21Z</time>
      </trkpt>
      <trkpt lat="43.51116" lon="6.46395">
        <ele>260.8</ele>
        <time>2023-01-27T13:25:30Z</time>
      </trkpt>
      <trkpt lat="43.51119" lon="6.46408">
        <ele>261.8</ele>
        <time>2023-01-27T13:25:41Z</time>
      </trkpt>
      <trkpt lat="43.51122" lon="6.46421">
        <ele>262.7</ele>
        <time>2023-01-27T13:25:51Z</time>
      </trkpt>
      <trkpt lat="43.51127" lon="6.46433">
        <ele>263.4</ele>
        <time>2023-01-27T13:26:00Z</time>
      </trkpt>
      <trkpt lat="43.51132" lon="6.46443">
        <ele>264.4</ele>
        <time>2023-01-27T13:26:10Z</time>
      </trkpt>
      <trkpt lat="43.51141" lon="6.46451">
        <ele>265.7</ele>
        <time>2023-01-27T13:26:22Z</time>
      </trkpt>
      <trkpt lat="43.51149" lon="6.46458">
        <ele>266.4</ele>
        <time>2023-01-27T13:26:32Z</time>
      </trkpt>
      <trkpt lat="43.51157" lon="6.46466">
        <ele>267.1</ele>
        <time>2023-01-27T13:26:43Z</time>
      </trkpt>
      <trkpt lat="43.51166" lon="6.46469">
        <ele>267.9</ele>
        <time>2023-01-27T13:26:52Z</time>
      </trkpt>
      <trkpt lat="43.51176" lon="6.4647">
        <ele>268.7</ele>
        <time>2023-01-27T13:27:01Z</time>
      </trkpt>
      <trkpt lat="43.51185" lon="6.46472">
        <ele>269.5</ele>
        <time>2023-01-27T13:27:10Z</time>
      </trkpt>
      <trkpt lat="43.51194" lon="6.46474">
        <ele>270.1</ele>
        <time>2023-01-27T13:27:20Z</time>
      </trkpt>
      <trkpt lat="43.51203" lon="6.46478">
        <ele>269.9</ele>
        <time>2023-01-27T13:27:28Z</time>
      </trkpt>
      <trkpt lat="43.51212" lon="6.46485">
        <ele>270.1</ele>
        <time>2023-01-27T13:27:37Z</time>
      </trkpt>
      <trkpt lat="43.51221" lon="6.46489">
        <ele>270.2</ele>
        <time>2023-01-27T13:27:46Z</time>
      </trkpt>
      <trkpt lat="43.5123" lon="6.46491">
        <ele>270</ele>
        <time>2023-01-27T13:27:53Z</time>
      </trkpt>
      <trkpt lat="43.51239" lon="6.46489">
        <ele>270.5</ele>
        <time>2023-01-27T13:28:07Z</time>
      </trkpt>
      <trkpt lat="43.51248" lon="6.46487">
        <ele>270.1</ele>
        <time>2023-01-27T13:28:40Z</time>
      </trkpt>
      <trkpt lat="43.51257" lon="6.46482">
        <ele>269.9</ele>
        <time>2023-01-27T13:29:29Z</time>
      </trkpt>
      <trkpt lat="43.51265" lon="6.46475">
        <ele>268.6</ele>
        <time>2023-01-27T13:29:42Z</time>
      </trkpt>
      <trkpt lat="43.51275" lon="6.46471">
        <ele>267.7</ele>
        <time>2023-01-27T13:29:51Z</time>
      </trkpt>
      <trkpt lat="43.51284" lon="6.46467">
        <ele>265.6</ele>
        <time>2023-01-27T13:29:59Z</time>
      </trkpt>
      <trkpt lat="43.51293" lon="6.46464">
        <ele>265.1</ele>
        <time>2023-01-27T13:30:10Z</time>
      </trkpt>
      <trkpt lat="43.51301" lon="6.46468">
        <ele>264.1</ele>
        <time>2023-01-27T13:30:20Z</time>
      </trkpt>
      <trkpt lat="43.51309" lon="6.46477">
        <ele>262.6</ele>
        <time>2023-01-27T13:30:33Z</time>
      </trkpt>
      <trkpt lat="43.51317" lon="6.46483">
        <ele>261.5</ele>
        <time>2023-01-27T13:30:43Z</time>
      </trkpt>
      <trkpt lat="43.51326" lon="6.46488">
        <ele>260</ele>
        <time>2023-01-27T13:30:55Z</time>
      </trkpt>
      <trkpt lat="43.51336" lon="6.4649">
        <ele>259</ele>
        <time>2023-01-27T13:31:07Z</time>
      </trkpt>
      <trkpt lat="43.51345" lon="6.46485">
        <ele>257.3</ele>
        <time>2023-01-27T13:31:19Z</time>
      </trkpt>
      <trkpt lat="43.51353" lon="6.4648">
        <ele>256.2</ele>
        <time>2023-01-27T13:31:38Z</time>
      </trkpt>
      <trkpt lat="43.51361" lon="6.46474">
        <ele>255.2</ele>
        <time>2023-01-27T13:31:46Z</time>
      </trkpt>
      <trkpt lat="43.51368" lon="6.46464">
        <ele>253.1</ele>
        <time>2023-01-27T13:31:57Z</time>
      </trkpt>
      <trkpt lat="43.51376" lon="6.46456">
        <ele>251.2</ele>
        <time>2023-01-27T13:32:06Z</time>
      </trkpt>
      <trkpt lat="43.51382" lon="6.46447">
        <ele>249.2</ele>
        <time>2023-01-27T13:32:15Z</time>
      </trkpt>
      <trkpt lat="43.51389" lon="6.46438">
        <ele>247.5</ele>
        <time>2023-01-27T13:32:31Z</time>
      </trkpt>
      <trkpt lat="43.51388" lon="6.46426">
        <ele>246.6</ele>
        <time>2023-01-27T13:32:54Z</time>
      </trkpt>
      <trkpt lat="43.51397" lon="6.4642">
        <ele>245.7</ele>
        <time>2023-01-27T13:33:26Z</time>
      </trkpt>
      <trkpt lat="43.51406" lon="6.46419">
        <ele>243.5</ele>
        <time>2023-01-27T13:33:38Z</time>
      </trkpt>
      <trkpt lat="43.51415" lon="6.46419">
        <ele>241.9</ele>
        <time>2023-01-27T13:33:48Z</time>
      </trkpt>
      <trkpt lat="43.51424" lon="6.4642">
        <ele>240.8</ele>
        <time>2023-01-27T13:33:57Z</time>
      </trkpt>
      <trkpt lat="43.51434" lon="6.46421">
        <ele>240.3</ele>
        <time>2023-01-27T13:34:06Z</time>
      </trkpt>
      <trkpt lat="43.51443" lon="6.46426">
        <ele>239.9</ele>
        <time>2023-01-27T13:34:15Z</time>
      </trkpt>
      <trkpt lat="43.51452" lon="6.46432">
        <ele>240</ele>
        <time>2023-01-27T13:34:25Z</time>
      </trkpt>
      <trkpt lat="43.51461" lon="6.46435">
        <ele>239.6</ele>
        <time>2023-01-27T13:34:34Z</time>
      </trkpt>
      <trkpt lat="43.5147" lon="6.46439">
        <ele>238.2</ele>
        <time>2023-01-27T13:34:43Z</time>
      </trkpt>
      <trkpt lat="43.51478" lon="6.46445">
        <ele>237.3</ele>
        <time>2023-01-27T13:34:51Z</time>
      </trkpt>
      <trkpt lat="43.51487" lon="6.4645">
        <ele>236.3</ele>
        <time>2023-01-27T13:35:00Z</time>
      </trkpt>
      <trkpt lat="43.51496" lon="6.46456">
        <ele>235.5</ele>
        <time>2023-01-27T13:35:07Z</time>
      </trkpt>
      <trkpt lat="43.51505" lon="6.46463">
        <ele>234.4</ele>
        <time>2023-01-27T13:35:15Z</time>
      </trkpt>
      <trkpt lat="43.51513" lon="6.46469">
        <ele>233.6</ele>
        <time>2023-01-27T13:35:23Z</time>
      </trkpt>
      <trkpt lat="43.51521" lon="6.46476">
        <ele>232.8</ele>
        <time>2023-01-27T13:35:30Z</time>
      </trkpt>
      <trkpt lat="43.5153" lon="6.46481">
        <ele>231.8</ele>
        <time>2023-01-27T13:35:38Z</time>
      </trkpt>
      <trkpt lat="43.51537" lon="6.46491">
        <ele>230.9</ele>
        <time>2023-01-27T13:35:47Z</time>
      </trkpt>
      <trkpt lat="43.51543" lon="6.46501">
        <ele>229.9</ele>
        <time>2023-01-27T13:35:58Z</time>
      </trkpt>
      <trkpt lat="43.51551" lon="6.46507">
        <ele>228.9</ele>
        <time>2023-01-27T13:36:21Z</time>
      </trkpt>
      <trkpt lat="43.51559" lon="6.46515">
        <ele>227.7</ele>
        <time>2023-01-27T13:36:33Z</time>
      </trkpt>
      <trkpt lat="43.51567" lon="6.46522">
        <ele>226.3</ele>
        <time>2023-01-27T13:36:43Z</time>
      </trkpt>
      <trkpt lat="43.51575" lon="6.46527">
        <ele>225.1</ele>
        <time>2023-01-27T13:36:52Z</time>
      </trkpt>
      <trkpt lat="43.51583" lon="6.46534">
        <ele>223.6</ele>
        <time>2023-01-27T13:37:02Z</time>
      </trkpt>
      <trkpt lat="43.51591" lon="6.46542">
        <ele>221.8</ele>
        <time>2023-01-27T13:37:13Z</time>
      </trkpt>
      <trkpt lat="43.51598" lon="6.46551">
        <ele>220.3</ele>
        <time>2023-01-27T13:37:24Z</time>
      </trkpt>
      <trkpt lat="43.51606" lon="6.46559">
        <ele>218.9</ele>
        <time>2023-01-27T13:37:34Z</time>
      </trkpt>
      <trkpt lat="43.51613" lon="6.46568">
        <ele>218</ele>
        <time>2023-01-27T13:37:42Z</time>
      </trkpt>
      <trkpt lat="43.5162" lon="6.46577">
        <ele>216.7</ele>
        <time>2023-01-27T13:37:50Z</time>
      </trkpt>
      <trkpt lat="43.51627" lon="6.46586">
        <ele>215.1</ele>
        <time>2023-01-27T13:37:59Z</time>
      </trkpt>
      <trkpt lat="43.51633" lon="6.46597">
        <ele>213.4</ele>
        <time>2023-01-27T13:38:10Z</time>
      </trkpt>
      <trkpt lat="43.51636" lon="6.46608">
        <ele>212.4</ele>
        <time>2023-01-27T13:38:19Z</time>
      </trkpt>
      <trkpt lat="43.51641" lon="6.4662">
        <ele>211.4</ele>
        <time>2023-01-27T13:38:28Z</time>
      </trkpt>
      <trkpt lat="43.51645" lon="6.46633">
        <ele>210.2</ele>
        <time>2023-01-27T13:38:36Z</time>
      </trkpt>
      <trkpt lat="43.51652" lon="6.46644">
        <ele>208.9</ele>
        <time>2023-01-27T13:38:46Z</time>
      </trkpt>
      <trkpt lat="43.51657" lon="6.46655">
        <ele>207.7</ele>
        <time>2023-01-27T13:38:55Z</time>
      </trkpt>
      <trkpt lat="43.5166" lon="6.46668">
        <ele>206.7</ele>
        <time>2023-01-27T13:39:04Z</time>
      </trkpt>
      <trkpt lat="43.51666" lon="6.46678">
        <ele>205.5</ele>
        <time>2023-01-27T13:39:14Z</time>
      </trkpt>
      <trkpt lat="43.5167" lon="6.4669">
        <ele>204.5</ele>
        <time>2023-01-27T13:39:22Z</time>
      </trkpt>
      <trkpt lat="43.51676" lon="6.46702">
        <ele>203</ele>
        <time>2023-01-27T13:39:31Z</time>
      </trkpt>
      <trkpt lat="43.51682" lon="6.46711">
        <ele>201.6</ele>
        <time>2023-01-27T13:39:40Z</time>
      </trkpt>
      <trkpt lat="43.51687" lon="6.46722">
        <ele>199.9</ele>
        <time>2023-01-27T13:39:49Z</time>
      </trkpt>
      <trkpt lat="43.51692" lon="6.46733">
        <ele>198.5</ele>
        <time>2023-01-27T13:39:59Z</time>
      </trkpt>
      <trkpt lat="43.51695" lon="6.46745">
        <ele>197.7</ele>
        <time>2023-01-27T13:40:08Z</time>
      </trkpt>
      <trkpt lat="43.51699" lon="6.46757">
        <ele>195.7</ele>
        <time>2023-01-27T13:40:18Z</time>
      </trkpt>
      <trkpt lat="43.51703" lon="6.46768">
        <ele>194.3</ele>
        <time>2023-01-27T13:40:28Z</time>
      </trkpt>
      <trkpt lat="43.51706" lon="6.4678">
        <ele>192.8</ele>
        <time>2023-01-27T13:40:37Z</time>
      </trkpt>
      <trkpt lat="43.51709" lon="6.46791">
        <ele>192</ele>
        <time>2023-01-27T13:40:45Z</time>
      </trkpt>
      <trkpt lat="43.51708" lon="6.46804">
        <ele>190.6</ele>
        <time>2023-01-27T13:41:30Z</time>
      </trkpt>
      <trkpt lat="43.51717" lon="6.46803">
        <ele>190.1</ele>
        <time>2023-01-27T13:42:17Z</time>
      </trkpt>
      <trkpt lat="43.51708" lon="6.46805">
        <ele>189.7</ele>
        <time>2023-01-27T13:43:03Z</time>
      </trkpt>
      <trkpt lat="43.517" lon="6.46812">
        <ele>189.5</ele>
        <time>2023-01-27T13:43:15Z</time>
      </trkpt>
      <trkpt lat="43.51692" lon="6.46818">
        <ele>189.3</ele>
        <time>2023-01-27T13:43:23Z</time>
      </trkpt>
      <trkpt lat="43.51683" lon="6.46823">
        <ele>189.3</ele>
        <time>2023-01-27T13:43:31Z</time>
      </trkpt>
      <trkpt lat="43.51673" lon="6.46828">
        <ele>189.5</ele>
        <time>2023-01-27T13:43:39Z</time>
      </trkpt>
      <trkpt lat="43.51664" lon="6.46834">
        <ele>189.4</ele>
        <time>2023-01-27T13:43:47Z</time>
      </trkpt>
      <trkpt lat="43.51656" lon="6.4684">
        <ele>189.5</ele>
        <time>2023-01-27T13:43:58Z</time>
      </trkpt>
      <trkpt lat="43.51648" lon="6.46847">
        <ele>189.3</ele>
        <time>2023-01-27T13:44:06Z</time>
      </trkpt>
      <trkpt lat="43.5164" lon="6.46854">
        <ele>189.3</ele>
        <time>2023-01-27T13:44:14Z</time>
      </trkpt>
      <trkpt lat="43.51631" lon="6.4686">
        <ele>189.6</ele>
        <time>2023-01-27T13:44:22Z</time>
      </trkpt>
      <trkpt lat="43.51625" lon="6.46869">
        <ele>189.5</ele>
        <time>2023-01-27T13:44:30Z</time>
      </trkpt>
      <trkpt lat="43.51617" lon="6.46879">
        <ele>189.4</ele>
        <time>2023-01-27T13:44:38Z</time>
      </trkpt>
      <trkpt lat="43.5161" lon="6.46886">
        <ele>189.3</ele>
        <time>2023-01-27T13:44:47Z</time>
      </trkpt>
      <trkpt lat="43.51603" lon="6.46895">
        <ele>189.3</ele>
        <time>2023-01-27T13:44:55Z</time>
      </trkpt>
      <trkpt lat="43.51596" lon="6.46903">
        <ele>189</ele>
        <time>2023-01-27T13:45:03Z</time>
      </trkpt>
      <trkpt lat="43.51589" lon="6.46912">
        <ele>189</ele>
        <time>2023-01-27T13:45:11Z</time>
      </trkpt>
      <trkpt lat="43.51581" lon="6.46919">
        <ele>188.7</ele>
        <time>2023-01-27T13:45:18Z</time>
      </trkpt>
      <trkpt lat="43.51575" lon="6.46928">
        <ele>188.4</ele>
        <time>2023-01-27T13:45:26Z</time>
      </trkpt>
      <trkpt lat="43.51567" lon="6.46936">
        <ele>188.3</ele>
        <time>2023-01-27T13:45:34Z</time>
      </trkpt>
      <trkpt lat="43.5156" lon="6.46945">
        <ele>188</ele>
        <time>2023-01-27T13:45:43Z</time>
      </trkpt>
      <trkpt lat="43.51552" lon="6.46953">
        <ele>188.1</ele>
        <time>2023-01-27T13:45:51Z</time>
      </trkpt>
      <trkpt lat="43.51545" lon="6.46961">
        <ele>187.9</ele>
        <time>2023-01-27T13:46:02Z</time>
      </trkpt>
      <trkpt lat="43.51537" lon="6.46969">
        <ele>187.6</ele>
        <time>2023-01-27T13:46:11Z</time>
      </trkpt>
      <trkpt lat="43.5153" lon="6.46978">
        <ele>187.7</ele>
        <time>2023-01-27T13:46:19Z</time>
      </trkpt>
      <trkpt lat="43.51524" lon="6.46987">
        <ele>187.7</ele>
        <time>2023-01-27T13:46:28Z</time>
      </trkpt>
      <trkpt lat="43.51517" lon="6.46995">
        <ele>187.7</ele>
        <time>2023-01-27T13:46:36Z</time>
      </trkpt>
      <trkpt lat="43.51509" lon="6.47004">
        <ele>187.5</ele>
        <time>2023-01-27T13:46:44Z</time>
      </trkpt>
      <trkpt lat="43.51502" lon="6.47012">
        <ele>187.4</ele>
        <time>2023-01-27T13:46:52Z</time>
      </trkpt>
      <trkpt lat="43.51494" lon="6.47021">
        <ele>187.7</ele>
        <time>2023-01-27T13:47:00Z</time>
      </trkpt>
      <trkpt lat="43.51488" lon="6.4703">
        <ele>187.7</ele>
        <time>2023-01-27T13:47:08Z</time>
      </trkpt>
      <trkpt lat="43.51481" lon="6.4704">
        <ele>187.8</ele>
        <time>2023-01-27T13:47:21Z</time>
      </trkpt>
      <trkpt lat="43.51475" lon="6.47049">
        <ele>187.2</ele>
        <time>2023-01-27T13:47:28Z</time>
      </trkpt>
      <trkpt lat="43.51466" lon="6.47056">
        <ele>186.7</ele>
        <time>2023-01-27T13:47:36Z</time>
      </trkpt>
      <trkpt lat="43.51459" lon="6.47065">
        <ele>187.1</ele>
        <time>2023-01-27T13:47:45Z</time>
      </trkpt>
      <trkpt lat="43.51451" lon="6.47073">
        <ele>186.9</ele>
        <time>2023-01-27T13:47:53Z</time>
      </trkpt>
      <trkpt lat="43.51444" lon="6.47082">
        <ele>187</ele>
        <time>2023-01-27T13:48:02Z</time>
      </trkpt>
      <trkpt lat="43.51437" lon="6.47091">
        <ele>187</ele>
        <time>2023-01-27T13:48:11Z</time>
      </trkpt>
      <trkpt lat="43.5143" lon="6.47101">
        <ele>186.8</ele>
        <time>2023-01-27T13:48:20Z</time>
      </trkpt>
      <trkpt lat="43.51423" lon="6.4711">
        <ele>186.5</ele>
        <time>2023-01-27T13:48:29Z</time>
      </trkpt>
      <trkpt lat="43.51416" lon="6.47119">
        <ele>186.3</ele>
        <time>2023-01-27T13:48:37Z</time>
      </trkpt>
      <trkpt lat="43.51408" lon="6.47128">
        <ele>186.3</ele>
        <time>2023-01-27T13:48:45Z</time>
      </trkpt>
      <trkpt lat="43.51401" lon="6.47137">
        <ele>186.6</ele>
        <time>2023-01-27T13:48:54Z</time>
      </trkpt>
      <trkpt lat="43.51393" lon="6.47145">
        <ele>186.4</ele>
        <time>2023-01-27T13:49:03Z</time>
      </trkpt>
      <trkpt lat="43.51387" lon="6.47154">
        <ele>186.4</ele>
        <time>2023-01-27T13:49:10Z</time>
      </trkpt>
      <trkpt lat="43.5138" lon="6.47162">
        <ele>186.3</ele>
        <time>2023-01-27T13:49:19Z</time>
      </trkpt>
      <trkpt lat="43.51372" lon="6.47169">
        <ele>186.1</ele>
        <time>2023-01-27T13:49:28Z</time>
      </trkpt>
      <trkpt lat="43.51365" lon="6.47177">
        <ele>186</ele>
        <time>2023-01-27T13:49:37Z</time>
      </trkpt>
      <trkpt lat="43.51357" lon="6.47185">
        <ele>186</ele>
        <time>2023-01-27T13:49:45Z</time>
      </trkpt>
      <trkpt lat="43.51349" lon="6.47192">
        <ele>185.7</ele>
        <time>2023-01-27T13:49:53Z</time>
      </trkpt>
      <trkpt lat="43.51341" lon="6.47197">
        <ele>185.6</ele>
        <time>2023-01-27T13:50:02Z</time>
      </trkpt>
      <trkpt lat="43.51332" lon="6.47204">
        <ele>185.5</ele>
        <time>2023-01-27T13:50:10Z</time>
      </trkpt>
      <trkpt lat="43.51325" lon="6.47213">
        <ele>185.3</ele>
        <time>2023-01-27T13:50:18Z</time>
      </trkpt>
      <trkpt lat="43.51316" lon="6.47219">
        <ele>185</ele>
        <time>2023-01-27T13:50:25Z</time>
      </trkpt>
      <trkpt lat="43.51308" lon="6.47226">
        <ele>185.5</ele>
        <time>2023-01-27T13:50:34Z</time>
      </trkpt>
      <trkpt lat="43.513" lon="6.47232">
        <ele>185.2</ele>
        <time>2023-01-27T13:50:41Z</time>
      </trkpt>
      <trkpt lat="43.51291" lon="6.47239">
        <ele>185.2</ele>
        <time>2023-01-27T13:50:50Z</time>
      </trkpt>
      <trkpt lat="43.51282" lon="6.47244">
        <ele>185.3</ele>
        <time>2023-01-27T13:50:57Z</time>
      </trkpt>
      <trkpt lat="43.51272" lon="6.47248">
        <ele>185.4</ele>
        <time>2023-01-27T13:51:05Z</time>
      </trkpt>
      <trkpt lat="43.51264" lon="6.47254">
        <ele>185.1</ele>
        <time>2023-01-27T13:51:12Z</time>
      </trkpt>
      <trkpt lat="43.51255" lon="6.4726">
        <ele>184.8</ele>
        <time>2023-01-27T13:51:19Z</time>
      </trkpt>
      <trkpt lat="43.51247" lon="6.47268">
        <ele>184.6</ele>
        <time>2023-01-27T13:51:27Z</time>
      </trkpt>
      <trkpt lat="43.51238" lon="6.47274">
        <ele>184.8</ele>
        <time>2023-01-27T13:51:36Z</time>
      </trkpt>
      <trkpt lat="43.51229" lon="6.47281">
        <ele>184.7</ele>
        <time>2023-01-27T13:51:47Z</time>
      </trkpt>
      <trkpt lat="43.5122" lon="6.47287">
        <ele>184.6</ele>
        <time>2023-01-27T13:51:56Z</time>
      </trkpt>
      <trkpt lat="43.51212" lon="6.47293">
        <ele>184.6</ele>
        <time>2023-01-27T13:52:04Z</time>
      </trkpt>
      <trkpt lat="43.51203" lon="6.47299">
        <ele>184.6</ele>
        <time>2023-01-27T13:52:12Z</time>
      </trkpt>
      <trkpt lat="43.51195" lon="6.47305">
        <ele>184.3</ele>
        <time>2023-01-27T13:52:19Z</time>
      </trkpt>
      <trkpt lat="43.51187" lon="6.4731">
        <ele>184</ele>
        <time>2023-01-27T13:52:27Z</time>
      </trkpt>
      <trkpt lat="43.51178" lon="6.47317">
        <ele>184.2</ele>
        <time>2023-01-27T13:52:36Z</time>
      </trkpt>
      <trkpt lat="43.5117" lon="6.47323">
        <ele>184.1</ele>
        <time>2023-01-27T13:52:55Z</time>
      </trkpt>
      <trkpt lat="43.51162" lon="6.47328">
        <ele>184</ele>
        <time>2023-01-27T13:53:02Z</time>
      </trkpt>
      <trkpt lat="43.51153" lon="6.47334">
        <ele>183.8</ele>
        <time>2023-01-27T13:53:10Z</time>
      </trkpt>
      <trkpt lat="43.51144" lon="6.47339">
        <ele>183.8</ele>
        <time>2023-01-27T13:53:18Z</time>
      </trkpt>
      <trkpt lat="43.51135" lon="6.47343">
        <ele>183.7</ele>
        <time>2023-01-27T13:53:24Z</time>
      </trkpt>
      <trkpt lat="43.51126" lon="6.47351">
        <ele>183.4</ele>
        <time>2023-01-27T13:53:33Z</time>
      </trkpt>
      <trkpt lat="43.51117" lon="6.47357">
        <ele>183.4</ele>
        <time>2023-01-27T13:53:40Z</time>
      </trkpt>
      <trkpt lat="43.51108" lon="6.47362">
        <ele>183.3</ele>
        <time>2023-01-27T13:53:49Z</time>
      </trkpt>
      <trkpt lat="43.511" lon="6.47369">
        <ele>183.2</ele>
        <time>2023-01-27T13:53:58Z</time>
      </trkpt>
      <trkpt lat="43.51092" lon="6.47376">
        <ele>183.3</ele>
        <time>2023-01-27T13:54:06Z</time>
      </trkpt>
      <trkpt lat="43.51083" lon="6.47382">
        <ele>183.1</ele>
        <time>2023-01-27T13:54:15Z</time>
      </trkpt>
      <trkpt lat="43.51074" lon="6.47389">
        <ele>183</ele>
        <time>2023-01-27T13:54:25Z</time>
      </trkpt>
      <trkpt lat="43.51066" lon="6.47395">
        <ele>183</ele>
        <time>2023-01-27T13:54:36Z</time>
      </trkpt>
      <trkpt lat="43.51056" lon="6.47401">
        <ele>182.9</ele>
        <time>2023-01-27T13:54:45Z</time>
      </trkpt>
      <trkpt lat="43.51048" lon="6.47406">
        <ele>182.8</ele>
        <time>2023-01-27T13:54:53Z</time>
      </trkpt>
      <trkpt lat="43.51039" lon="6.47413">
        <ele>182.7</ele>
        <time>2023-01-27T13:55:02Z</time>
      </trkpt>
      <trkpt lat="43.5103" lon="6.47419">
        <ele>182.6</ele>
        <time>2023-01-27T13:55:11Z</time>
      </trkpt>
      <trkpt lat="43.51021" lon="6.47419">
        <ele>183</ele>
        <time>2023-01-27T13:55:22Z</time>
      </trkpt>
      <trkpt lat="43.51012" lon="6.47424">
        <ele>183.1</ele>
        <time>2023-01-27T13:55:43Z</time>
      </trkpt>
      <trkpt lat="43.51004" lon="6.4743">
        <ele>182.7</ele>
        <time>2023-01-27T13:55:52Z</time>
      </trkpt>
      <trkpt lat="43.50996" lon="6.47436">
        <ele>182.6</ele>
        <time>2023-01-27T13:56:01Z</time>
      </trkpt>
      <trkpt lat="43.50987" lon="6.47442">
        <ele>182.3</ele>
        <time>2023-01-27T13:56:15Z</time>
      </trkpt>
      <trkpt lat="43.50979" lon="6.47447">
        <ele>181.9</ele>
        <time>2023-01-27T13:56:27Z</time>
      </trkpt>
      <trkpt lat="43.5097" lon="6.47453">
        <ele>182.1</ele>
        <time>2023-01-27T13:56:38Z</time>
      </trkpt>
      <trkpt lat="43.50961" lon="6.47457">
        <ele>182.3</ele>
        <time>2023-01-27T13:56:48Z</time>
      </trkpt>
      <trkpt lat="43.50953" lon="6.47462">
        <ele>182.1</ele>
        <time>2023-01-27T13:57:00Z</time>
      </trkpt>
      <trkpt lat="43.50944" lon="6.47466">
        <ele>181.4</ele>
        <time>2023-01-27T13:58:16Z</time>
      </trkpt>
      <trkpt lat="43.50936" lon="6.47461">
        <ele>181.7</ele>
        <time>2023-01-27T13:59:49Z</time>
      </trkpt>
      <trkpt lat="43.50933" lon="6.47448">
        <ele>182.6</ele>
        <time>2023-01-27T14:00:04Z</time>
      </trkpt>
      <trkpt lat="43.5093" lon="6.47436">
        <ele>183.6</ele>
        <time>2023-01-27T14:00:13Z</time>
      </trkpt>
      <trkpt lat="43.50927" lon="6.47424">
        <ele>184.6</ele>
        <time>2023-01-27T14:00:24Z</time>
      </trkpt>
      <trkpt lat="43.50931" lon="6.47412">
        <ele>185.6</ele>
        <time>2023-01-27T14:00:36Z</time>
      </trkpt>
      <trkpt lat="43.5094" lon="6.4741">
        <ele>187.5</ele>
        <time>2023-01-27T14:00:54Z</time>
      </trkpt>
      <trkpt lat="43.50948" lon="6.47402">
        <ele>189.6</ele>
        <time>2023-01-27T14:01:07Z</time>
      </trkpt>
      <trkpt lat="43.50956" lon="6.47395">
        <ele>191.6</ele>
        <time>2023-01-27T14:01:20Z</time>
      </trkpt>
      <trkpt lat="43.50963" lon="6.47385">
        <ele>193.6</ele>
        <time>2023-01-27T14:01:32Z</time>
      </trkpt>
      <trkpt lat="43.50971" lon="6.47378">
        <ele>195.2</ele>
        <time>2023-01-27T14:01:43Z</time>
      </trkpt>
      <trkpt lat="43.50979" lon="6.47373">
        <ele>196.9</ele>
        <time>2023-01-27T14:01:54Z</time>
      </trkpt>
      <trkpt lat="43.50987" lon="6.47366">
        <ele>198.3</ele>
        <time>2023-01-27T14:02:06Z</time>
      </trkpt>
      <trkpt lat="43.50995" lon="6.47358">
        <ele>199.2</ele>
        <time>2023-01-27T14:02:17Z</time>
      </trkpt>
      <trkpt lat="43.51003" lon="6.47353">
        <ele>200.4</ele>
        <time>2023-01-27T14:02:28Z</time>
      </trkpt>
      <trkpt lat="43.51012" lon="6.47346">
        <ele>201.8</ele>
        <time>2023-01-27T14:02:43Z</time>
      </trkpt>
      <trkpt lat="43.51019" lon="6.47338">
        <ele>203.9</ele>
        <time>2023-01-27T14:02:57Z</time>
      </trkpt>
      <trkpt lat="43.51025" lon="6.47328">
        <ele>205.5</ele>
        <time>2023-01-27T14:03:10Z</time>
      </trkpt>
      <trkpt lat="43.51032" lon="6.4732">
        <ele>208.2</ele>
        <time>2023-01-27T14:03:37Z</time>
      </trkpt>
      <trkpt lat="43.51023" lon="6.47317">
        <ele>208.5</ele>
        <time>2023-01-27T14:06:43Z</time>
      </trkpt>
      <trkpt lat="43.51015" lon="6.47311">
        <ele>208.6</ele>
        <time>2023-01-27T14:06:51Z</time>
      </trkpt>
      <trkpt lat="43.51007" lon="6.47303">
        <ele>208.9</ele>
        <time>2023-01-27T14:07:00Z</time>
      </trkpt>
      <trkpt lat="43.51" lon="6.47295">
        <ele>209.3</ele>
        <time>2023-01-27T14:07:10Z</time>
      </trkpt>
      <trkpt lat="43.50993" lon="6.47287">
        <ele>210.1</ele>
        <time>2023-01-27T14:07:25Z</time>
      </trkpt>
      <trkpt lat="43.50985" lon="6.47281">
        <ele>211.1</ele>
        <time>2023-01-27T14:07:36Z</time>
      </trkpt>
      <trkpt lat="43.50976" lon="6.4728">
        <ele>212.9</ele>
        <time>2023-01-27T14:07:50Z</time>
      </trkpt>
      <trkpt lat="43.50967" lon="6.4728">
        <ele>214.5</ele>
        <time>2023-01-27T14:08:02Z</time>
      </trkpt>
      <trkpt lat="43.50958" lon="6.47282">
        <ele>216.4</ele>
        <time>2023-01-27T14:08:16Z</time>
      </trkpt>
      <trkpt lat="43.50948" lon="6.47283">
        <ele>218.9</ele>
        <time>2023-01-27T14:08:34Z</time>
      </trkpt>
      <trkpt lat="43.50939" lon="6.47284">
        <ele>220.9</ele>
        <time>2023-01-27T14:08:50Z</time>
      </trkpt>
      <trkpt lat="43.5093" lon="6.47281">
        <ele>223</ele>
        <time>2023-01-27T14:09:04Z</time>
      </trkpt>
      <trkpt lat="43.50923" lon="6.47273">
        <ele>224.1</ele>
        <time>2023-01-27T14:09:15Z</time>
      </trkpt>
      <trkpt lat="43.50914" lon="6.47268">
        <ele>225</ele>
        <time>2023-01-27T14:09:24Z</time>
      </trkpt>
      <trkpt lat="43.50905" lon="6.47263">
        <ele>225.8</ele>
        <time>2023-01-27T14:09:35Z</time>
      </trkpt>
      <trkpt lat="43.50896" lon="6.47259">
        <ele>226.4</ele>
        <time>2023-01-27T14:09:44Z</time>
      </trkpt>
      <trkpt lat="43.50888" lon="6.47253">
        <ele>226.4</ele>
        <time>2023-01-27T14:09:57Z</time>
      </trkpt>
      <trkpt lat="43.50879" lon="6.47251">
        <ele>226.6</ele>
        <time>2023-01-27T14:10:08Z</time>
      </trkpt>
      <trkpt lat="43.5087" lon="6.47247">
        <ele>226.5</ele>
        <time>2023-01-27T14:10:15Z</time>
      </trkpt>
      <trkpt lat="43.50864" lon="6.47236">
        <ele>227.5</ele>
        <time>2023-01-27T14:10:29Z</time>
      </trkpt>
      <trkpt lat="43.50859" lon="6.47226">
        <ele>228.9</ele>
        <time>2023-01-27T14:10:39Z</time>
      </trkpt>
      <trkpt lat="43.50853" lon="6.47216">
        <ele>231.1</ele>
        <time>2023-01-27T14:10:53Z</time>
      </trkpt>
      <trkpt lat="43.50848" lon="6.47205">
        <ele>232</ele>
        <time>2023-01-27T14:11:01Z</time>
      </trkpt>
      <trkpt lat="43.50845" lon="6.47193">
        <ele>232.2</ele>
        <time>2023-01-27T14:11:11Z</time>
      </trkpt>
      <trkpt lat="43.50842" lon="6.47181">
        <ele>232.2</ele>
        <time>2023-01-27T14:11:19Z</time>
      </trkpt>
      <trkpt lat="43.50843" lon="6.47168">
        <ele>232.3</ele>
        <time>2023-01-27T14:11:31Z</time>
      </trkpt>
      <trkpt lat="43.50839" lon="6.47157">
        <ele>232.3</ele>
        <time>2023-01-27T14:11:40Z</time>
      </trkpt>
      <trkpt lat="43.50838" lon="6.47144">
        <ele>231.5</ele>
        <time>2023-01-27T14:11:51Z</time>
      </trkpt>
      <trkpt lat="43.50836" lon="6.47131">
        <ele>231.2</ele>
        <time>2023-01-27T14:12:01Z</time>
      </trkpt>
      <trkpt lat="43.50833" lon="6.47119">
        <ele>231.3</ele>
        <time>2023-01-27T14:12:10Z</time>
      </trkpt>
      <trkpt lat="43.50829" lon="6.47107">
        <ele>231.5</ele>
        <time>2023-01-27T14:12:21Z</time>
      </trkpt>
      <trkpt lat="43.50819" lon="6.47105">
        <ele>231.2</ele>
        <time>2023-01-27T14:12:30Z</time>
      </trkpt>
      <trkpt lat="43.5081" lon="6.47108">
        <ele>231.4</ele>
        <time>2023-01-27T14:12:47Z</time>
      </trkpt>
      <trkpt lat="43.50801" lon="6.47111">
        <ele>231</ele>
        <time>2023-01-27T14:13:11Z</time>
      </trkpt>
      <trkpt lat="43.50791" lon="6.47114">
        <ele>231</ele>
        <time>2023-01-27T14:13:23Z</time>
      </trkpt>
      <trkpt lat="43.50782" lon="6.47117">
        <ele>231.3</ele>
        <time>2023-01-27T14:13:35Z</time>
      </trkpt>
      <trkpt lat="43.50774" lon="6.47125">
        <ele>231.5</ele>
        <time>2023-01-27T14:13:46Z</time>
      </trkpt>
      <trkpt lat="43.50765" lon="6.4713">
        <ele>231.8</ele>
        <time>2023-01-27T14:13:56Z</time>
      </trkpt>
      <trkpt lat="43.50756" lon="6.47135">
        <ele>232</ele>
        <time>2023-01-27T14:14:04Z</time>
      </trkpt>
      <trkpt lat="43.50746" lon="6.47137">
        <ele>232.2</ele>
        <time>2023-01-27T14:14:13Z</time>
      </trkpt>
      <trkpt lat="43.50737" lon="6.47136">
        <ele>232.6</ele>
        <time>2023-01-27T14:14:22Z</time>
      </trkpt>
      <trkpt lat="43.50728" lon="6.47134">
        <ele>233.2</ele>
        <time>2023-01-27T14:14:32Z</time>
      </trkpt>
      <trkpt lat="43.50719" lon="6.47129">
        <ele>234.5</ele>
        <time>2023-01-27T14:14:43Z</time>
      </trkpt>
      <trkpt lat="43.5071" lon="6.47125">
        <ele>235.8</ele>
        <time>2023-01-27T14:14:54Z</time>
      </trkpt>
      <trkpt lat="43.50701" lon="6.47121">
        <ele>237.7</ele>
        <time>2023-01-27T14:15:05Z</time>
      </trkpt>
      <trkpt lat="43.50693" lon="6.47115">
        <ele>239</ele>
        <time>2023-01-27T14:15:17Z</time>
      </trkpt>
      <trkpt lat="43.50685" lon="6.47108">
        <ele>240.5</ele>
        <time>2023-01-27T14:15:28Z</time>
      </trkpt>
      <trkpt lat="43.50678" lon="6.47101">
        <ele>241.8</ele>
        <time>2023-01-27T14:15:40Z</time>
      </trkpt>
      <trkpt lat="43.50671" lon="6.47093">
        <ele>243.9</ele>
        <time>2023-01-27T14:16:12Z</time>
      </trkpt>
      <trkpt lat="43.50662" lon="6.47096">
        <ele>243.7</ele>
        <time>2023-01-27T14:18:28Z</time>
      </trkpt>
      <trkpt lat="43.50654" lon="6.47102">
        <ele>244</ele>
        <time>2023-01-27T14:18:39Z</time>
      </trkpt>
      <trkpt lat="43.50646" lon="6.47111">
        <ele>244</ele>
        <time>2023-01-27T14:18:49Z</time>
      </trkpt>
      <trkpt lat="43.50639" lon="6.4712">
        <ele>244</ele>
        <time>2023-01-27T14:18:58Z</time>
      </trkpt>
      <trkpt lat="43.50632" lon="6.47129">
        <ele>243.9</ele>
        <time>2023-01-27T14:19:07Z</time>
      </trkpt>
      <trkpt lat="43.50626" lon="6.47139">
        <ele>243.6</ele>
        <time>2023-01-27T14:19:16Z</time>
      </trkpt>
      <trkpt lat="43.50621" lon="6.47151">
        <ele>242.7</ele>
        <time>2023-01-27T14:19:25Z</time>
      </trkpt>
      <trkpt lat="43.50617" lon="6.47162">
        <ele>242.3</ele>
        <time>2023-01-27T14:19:35Z</time>
      </trkpt>
      <trkpt lat="43.50612" lon="6.47173">
        <ele>241.9</ele>
        <time>2023-01-27T14:19:45Z</time>
      </trkpt>
      <trkpt lat="43.50608" lon="6.47184">
        <ele>241.9</ele>
        <time>2023-01-27T14:20:16Z</time>
      </trkpt>
      <trkpt lat="43.50599" lon="6.47186">
        <ele>243.1</ele>
        <time>2023-01-27T14:22:01Z</time>
      </trkpt>
      <trkpt lat="43.5059" lon="6.47184">
        <ele>243.5</ele>
        <time>2023-01-27T14:22:13Z</time>
      </trkpt>
      <trkpt lat="43.50585" lon="6.47173">
        <ele>244</ele>
        <time>2023-01-27T14:22:25Z</time>
      </trkpt>
      <trkpt lat="43.50582" lon="6.4716">
        <ele>244</ele>
        <time>2023-01-27T14:22:36Z</time>
      </trkpt>
      <trkpt lat="43.50588" lon="6.4715">
        <ele>243.9</ele>
        <time>2023-01-27T14:22:47Z</time>
      </trkpt>
      <trkpt lat="43.50581" lon="6.47142">
        <ele>244</ele>
        <time>2023-01-27T14:24:35Z</time>
      </trkpt>
      <trkpt lat="43.50576" lon="6.47154">
        <ele>243.5</ele>
        <time>2023-01-27T14:25:27Z</time>
      </trkpt>
      <trkpt lat="43.50569" lon="6.47163">
        <ele>243.8</ele>
        <time>2023-01-27T14:25:34Z</time>
      </trkpt>
      <trkpt lat="43.50562" lon="6.47174">
        <ele>244</ele>
        <time>2023-01-27T14:25:41Z</time>
      </trkpt>
      <trkpt lat="43.50557" lon="6.47185">
        <ele>244.2</ele>
        <time>2023-01-27T14:25:48Z</time>
      </trkpt>
      <trkpt lat="43.50551" lon="6.47195">
        <ele>244.4</ele>
        <time>2023-01-27T14:25:56Z</time>
      </trkpt>
      <trkpt lat="43.50549" lon="6.47182">
        <ele>244.4</ele>
        <time>2023-01-27T14:26:05Z</time>
      </trkpt>
      <trkpt lat="43.50547" lon="6.4717">
        <ele>244.3</ele>
        <time>2023-01-27T14:26:10Z</time>
      </trkpt>
      <trkpt lat="43.50539" lon="6.47161">
        <ele>243.4</ele>
        <time>2023-01-27T14:26:16Z</time>
      </trkpt>
      <trkpt lat="43.50531" lon="6.47155">
        <ele>242.8</ele>
        <time>2023-01-27T14:26:22Z</time>
      </trkpt>
      <trkpt lat="43.50521" lon="6.47149">
        <ele>241.9</ele>
        <time>2023-01-27T14:26:29Z</time>
      </trkpt>
      <trkpt lat="43.50512" lon="6.47144">
        <ele>241.5</ele>
        <time>2023-01-27T14:26:35Z</time>
      </trkpt>
      <trkpt lat="43.50503" lon="6.47141">
        <ele>240.6</ele>
        <time>2023-01-27T14:26:49Z</time>
      </trkpt>
      <trkpt lat="43.50494" lon="6.47137">
        <ele>240.2</ele>
        <time>2023-01-27T14:27:03Z</time>
      </trkpt>
      <trkpt lat="43.50484" lon="6.47134">
        <ele>239.7</ele>
        <time>2023-01-27T14:27:10Z</time>
      </trkpt>
      <trkpt lat="43.50476" lon="6.47126">
        <ele>239.6</ele>
        <time>2023-01-27T14:27:15Z</time>
      </trkpt>
      <trkpt lat="43.50466" lon="6.47121">
        <ele>238.7</ele>
        <time>2023-01-27T14:27:19Z</time>
      </trkpt>
      <trkpt lat="43.50458" lon="6.47115">
        <ele>237.8</ele>
        <time>2023-01-27T14:27:24Z</time>
      </trkpt>
      <trkpt lat="43.50449" lon="6.4711">
        <ele>236.9</ele>
        <time>2023-01-27T14:27:30Z</time>
      </trkpt>
      <trkpt lat="43.5044" lon="6.47103">
        <ele>236.3</ele>
        <time>2023-01-27T14:27:37Z</time>
      </trkpt>
      <trkpt lat="43.50431" lon="6.47094">
        <ele>235.3</ele>
        <time>2023-01-27T14:27:43Z</time>
      </trkpt>
      <trkpt lat="43.50422" lon="6.47091">
        <ele>234.6</ele>
        <time>2023-01-27T14:27:49Z</time>
      </trkpt>
      <trkpt lat="43.50413" lon="6.47092">
        <ele>234.2</ele>
        <time>2023-01-27T14:27:55Z</time>
      </trkpt>
      <trkpt lat="43.50403" lon="6.47098">
        <ele>234.4</ele>
        <time>2023-01-27T14:28:02Z</time>
      </trkpt>
      <trkpt lat="43.50394" lon="6.47103">
        <ele>235.1</ele>
        <time>2023-01-27T14:28:10Z</time>
      </trkpt>
      <trkpt lat="43.50385" lon="6.471">
        <ele>235.1</ele>
        <time>2023-01-27T14:28:22Z</time>
      </trkpt>
      <trkpt lat="43.50375" lon="6.47097">
        <ele>234.9</ele>
        <time>2023-01-27T14:28:35Z</time>
      </trkpt>
      <trkpt lat="43.50366" lon="6.47094">
        <ele>234.9</ele>
        <time>2023-01-27T14:28:46Z</time>
      </trkpt>
      <trkpt lat="43.50357" lon="6.47091">
        <ele>234.4</ele>
        <time>2023-01-27T14:28:57Z</time>
      </trkpt>
      <trkpt lat="43.50347" lon="6.47092">
        <ele>233.7</ele>
        <time>2023-01-27T14:29:07Z</time>
      </trkpt>
      <trkpt lat="43.50337" lon="6.47093">
        <ele>232.7</ele>
        <time>2023-01-27T14:29:17Z</time>
      </trkpt>
      <trkpt lat="43.50328" lon="6.47093">
        <ele>232</ele>
        <time>2023-01-27T14:29:27Z</time>
      </trkpt>
      <trkpt lat="43.50319" lon="6.47092">
        <ele>231.5</ele>
        <time>2023-01-27T14:29:38Z</time>
      </trkpt>
      <trkpt lat="43.5031" lon="6.47088">
        <ele>231</ele>
        <time>2023-01-27T14:29:48Z</time>
      </trkpt>
      <trkpt lat="43.503" lon="6.47085">
        <ele>230.5</ele>
        <time>2023-01-27T14:29:58Z</time>
      </trkpt>
      <trkpt lat="43.50292" lon="6.47082">
        <ele>230.6</ele>
        <time>2023-01-27T14:30:07Z</time>
      </trkpt>
      <trkpt lat="43.50283" lon="6.47077">
        <ele>230.5</ele>
        <time>2023-01-27T14:30:16Z</time>
      </trkpt>
      <trkpt lat="43.50274" lon="6.4707">
        <ele>230.9</ele>
        <time>2023-01-27T14:30:26Z</time>
      </trkpt>
      <trkpt lat="43.50268" lon="6.4706">
        <ele>230.6</ele>
        <time>2023-01-27T14:30:37Z</time>
      </trkpt>
      <trkpt lat="43.50265" lon="6.47048">
        <ele>230.5</ele>
        <time>2023-01-27T14:30:48Z</time>
      </trkpt>
      <trkpt lat="43.50263" lon="6.47035">
        <ele>230</ele>
        <time>2023-01-27T14:30:58Z</time>
      </trkpt>
      <trkpt lat="43.50258" lon="6.47023">
        <ele>229.4</ele>
        <time>2023-01-27T14:31:08Z</time>
      </trkpt>
      <trkpt lat="43.50253" lon="6.47013">
        <ele>228.6</ele>
        <time>2023-01-27T14:31:18Z</time>
      </trkpt>
      <trkpt lat="43.50247" lon="6.47003">
        <ele>228</ele>
        <time>2023-01-27T14:31:27Z</time>
      </trkpt>
      <trkpt lat="43.5024" lon="6.46995">
        <ele>227.9</ele>
        <time>2023-01-27T14:31:35Z</time>
      </trkpt>
      <trkpt lat="43.50233" lon="6.46986">
        <ele>227.6</ele>
        <time>2023-01-27T14:31:43Z</time>
      </trkpt>
      <trkpt lat="43.50226" lon="6.46979">
        <ele>227.6</ele>
        <time>2023-01-27T14:31:51Z</time>
      </trkpt>
      <trkpt lat="43.50217" lon="6.46976">
        <ele>227.6</ele>
        <time>2023-01-27T14:32:01Z</time>
      </trkpt>
      <trkpt lat="43.50211" lon="6.46965">
        <ele>226.9</ele>
        <time>2023-01-27T14:32:11Z</time>
      </trkpt>
      <trkpt lat="43.50213" lon="6.46952">
        <ele>226.3</ele>
        <time>2023-01-27T14:32:21Z</time>
      </trkpt>
      <trkpt lat="43.50216" lon="6.4694">
        <ele>226</ele>
        <time>2023-01-27T14:32:30Z</time>
      </trkpt>
      <trkpt lat="43.50219" lon="6.46927">
        <ele>225.1</ele>
        <time>2023-01-27T14:32:39Z</time>
      </trkpt>
      <trkpt lat="43.50222" lon="6.46915">
        <ele>224.8</ele>
        <time>2023-01-27T14:32:45Z</time>
      </trkpt>
      <trkpt lat="43.50225" lon="6.46901">
        <ele>224.2</ele>
        <time>2023-01-27T14:32:52Z</time>
      </trkpt>
      <trkpt lat="43.50227" lon="6.46888">
        <ele>224</ele>
        <time>2023-01-27T14:32:58Z</time>
      </trkpt>
      <trkpt lat="43.5023" lon="6.46876">
        <ele>224</ele>
        <time>2023-01-27T14:33:05Z</time>
      </trkpt>
      <trkpt lat="43.50232" lon="6.46864">
        <ele>224.1</ele>
        <time>2023-01-27T14:33:12Z</time>
      </trkpt>
      <trkpt lat="43.50233" lon="6.46851">
        <ele>224.1</ele>
        <time>2023-01-27T14:33:25Z</time>
      </trkpt>
      <trkpt lat="43.50235" lon="6.46837">
        <ele>224.2</ele>
        <time>2023-01-27T14:33:38Z</time>
      </trkpt>
      <trkpt lat="43.50237" lon="6.46824">
        <ele>224.1</ele>
        <time>2023-01-27T14:33:47Z</time>
      </trkpt>
      <trkpt lat="43.50237" lon="6.46811">
        <ele>223.9</ele>
        <time>2023-01-27T14:33:57Z</time>
      </trkpt>
      <trkpt lat="43.50236" lon="6.46798">
        <ele>224.2</ele>
        <time>2023-01-27T14:36:22Z</time>
      </trkpt>
      <trkpt lat="43.50233" lon="6.46786">
        <ele>224.3</ele>
        <time>2023-01-27T14:36:29Z</time>
      </trkpt>
      <trkpt lat="43.50229" lon="6.46773">
        <ele>224.4</ele>
        <time>2023-01-27T14:36:36Z</time>
      </trkpt>
      <trkpt lat="43.50227" lon="6.46759">
        <ele>224.8</ele>
        <time>2023-01-27T14:36:44Z</time>
      </trkpt>
      <trkpt lat="43.50224" lon="6.46746">
        <ele>224.7</ele>
        <time>2023-01-27T14:36:52Z</time>
      </trkpt>
      <trkpt lat="43.50221" lon="6.46733">
        <ele>225</ele>
        <time>2023-01-27T14:37:01Z</time>
      </trkpt>
      <trkpt lat="43.50218" lon="6.46721">
        <ele>225.3</ele>
        <time>2023-01-27T14:37:09Z</time>
      </trkpt>
      <trkpt lat="43.50214" lon="6.46709">
        <ele>225.3</ele>
        <time>2023-01-27T14:37:18Z</time>
      </trkpt>
      <trkpt lat="43.50212" lon="6.46696">
        <ele>226</ele>
        <time>2023-01-27T14:37:30Z</time>
      </trkpt>
      <trkpt lat="43.5021" lon="6.46683">
        <ele>226.7</ele>
        <time>2023-01-27T14:38:29Z</time>
      </trkpt>
      <trkpt lat="43.50207" lon="6.46671">
        <ele>227.5</ele>
        <time>2023-01-27T14:38:42Z</time>
      </trkpt>
      <trkpt lat="43.50204" lon="6.46659">
        <ele>227.7</ele>
        <time>2023-01-27T14:38:55Z</time>
      </trkpt>
      <trkpt lat="43.50201" lon="6.46646">
        <ele>228</ele>
        <time>2023-01-27T14:39:06Z</time>
      </trkpt>
      <trkpt lat="43.50197" lon="6.46634">
        <ele>228.6</ele>
        <time>2023-01-27T14:39:15Z</time>
      </trkpt>
      <trkpt lat="43.50194" lon="6.46622">
        <ele>228.9</ele>
        <time>2023-01-27T14:39:25Z</time>
      </trkpt>
      <trkpt lat="43.50191" lon="6.46609">
        <ele>229.7</ele>
        <time>2023-01-27T14:39:36Z</time>
      </trkpt>
      <trkpt lat="43.50187" lon="6.46597">
        <ele>230.7</ele>
        <time>2023-01-27T14:39:46Z</time>
      </trkpt>
      <trkpt lat="43.50184" lon="6.46584">
        <ele>231.7</ele>
        <time>2023-01-27T14:39:56Z</time>
      </trkpt>
      <trkpt lat="43.50181" lon="6.46571">
        <ele>232.9</ele>
        <time>2023-01-27T14:40:07Z</time>
      </trkpt>
      <trkpt lat="43.50178" lon="6.4656">
        <ele>233.9</ele>
        <time>2023-01-27T14:40:18Z</time>
      </trkpt>
      <trkpt lat="43.50179" lon="6.46547">
        <ele>234.9</ele>
        <time>2023-01-27T14:40:38Z</time>
      </trkpt>
      <trkpt lat="43.50175" lon="6.46534">
        <ele>235.9</ele>
        <time>2023-01-27T14:40:51Z</time>
      </trkpt>
      <trkpt lat="43.50174" lon="6.46521">
        <ele>237.2</ele>
        <time>2023-01-27T14:41:01Z</time>
      </trkpt>
      <trkpt lat="43.50171" lon="6.46508">
        <ele>238.8</ele>
        <time>2023-01-27T14:41:10Z</time>
      </trkpt>
      <trkpt lat="43.50173" lon="6.46495">
        <ele>240.6</ele>
        <time>2023-01-27T14:41:24Z</time>
      </trkpt>
      <trkpt lat="43.50181" lon="6.46489">
        <ele>240.8</ele>
        <time>2023-01-27T14:41:35Z</time>
      </trkpt>
      <trkpt lat="43.5019" lon="6.46483">
        <ele>241.1</ele>
        <time>2023-01-27T14:41:45Z</time>
      </trkpt>
      <trkpt lat="43.50198" lon="6.46476">
        <ele>242</ele>
        <time>2023-01-27T14:42:22Z</time>
      </trkpt>
      <trkpt lat="43.50207" lon="6.46473">
        <ele>241.8</ele>
        <time>2023-01-27T14:42:33Z</time>
      </trkpt>
      <trkpt lat="43.50216" lon="6.4647">
        <ele>242.4</ele>
        <time>2023-01-27T14:42:45Z</time>
      </trkpt>
      <trkpt lat="43.50225" lon="6.46467">
        <ele>243.5</ele>
        <time>2023-01-27T14:42:55Z</time>
      </trkpt>
      <trkpt lat="43.50234" lon="6.46462">
        <ele>244.4</ele>
        <time>2023-01-27T14:43:04Z</time>
      </trkpt>
      <trkpt lat="43.50241" lon="6.46454">
        <ele>245</ele>
        <time>2023-01-27T14:43:12Z</time>
      </trkpt>
      <trkpt lat="43.50246" lon="6.46443">
        <ele>246.1</ele>
        <time>2023-01-27T14:43:20Z</time>
      </trkpt>
      <trkpt lat="43.50251" lon="6.46431">
        <ele>247.5</ele>
        <time>2023-01-27T14:43:31Z</time>
      </trkpt>
      <trkpt lat="43.50255" lon="6.46419">
        <ele>248.7</ele>
        <time>2023-01-27T14:43:42Z</time>
      </trkpt>
      <trkpt lat="43.5026" lon="6.46408">
        <ele>249.9</ele>
        <time>2023-01-27T14:43:52Z</time>
      </trkpt>
      <trkpt lat="43.50263" lon="6.46395">
        <ele>250.9</ele>
        <time>2023-01-27T14:44:03Z</time>
      </trkpt>
      <trkpt lat="43.50267" lon="6.46384">
        <ele>252.2</ele>
        <time>2023-01-27T14:44:14Z</time>
      </trkpt>
      <trkpt lat="43.5027" lon="6.4637">
        <ele>252.9</ele>
        <time>2023-01-27T14:44:22Z</time>
      </trkpt>
      <trkpt lat="43.50273" lon="6.46357">
        <ele>253.3</ele>
        <time>2023-01-27T14:44:30Z</time>
      </trkpt>
      <trkpt lat="43.50277" lon="6.46346">
        <ele>253.9</ele>
        <time>2023-01-27T14:44:37Z</time>
      </trkpt>
      <trkpt lat="43.50282" lon="6.46334">
        <ele>254</ele>
        <time>2023-01-27T14:44:44Z</time>
      </trkpt>
      <trkpt lat="43.50285" lon="6.46321">
        <ele>254.6</ele>
        <time>2023-01-27T14:44:53Z</time>
      </trkpt>
      <trkpt lat="43.50284" lon="6.46308">
        <ele>255.1</ele>
        <time>2023-01-27T14:45:00Z</time>
      </trkpt>
      <trkpt lat="43.50282" lon="6.46295">
        <ele>256</ele>
        <time>2023-01-27T14:45:09Z</time>
      </trkpt>
      <trkpt lat="43.50278" lon="6.46283">
        <ele>257</ele>
        <time>2023-01-27T14:45:19Z</time>
      </trkpt>
      <trkpt lat="43.50271" lon="6.46274">
        <ele>258.2</ele>
        <time>2023-01-27T14:45:29Z</time>
      </trkpt>
      <trkpt lat="43.50267" lon="6.46263">
        <ele>259.8</ele>
        <time>2023-01-27T14:45:43Z</time>
      </trkpt>
      <trkpt lat="43.50257" lon="6.46263">
        <ele>260.8</ele>
        <time>2023-01-27T14:46:00Z</time>
      </trkpt>
      <trkpt lat="43.50249" lon="6.46258">
        <ele>260.9</ele>
        <time>2023-01-27T14:46:43Z</time>
      </trkpt>
      <trkpt lat="43.50248" lon="6.46245">
        <ele>262.2</ele>
        <time>2023-01-27T14:48:09Z</time>
      </trkpt>
      <trkpt lat="43.50243" lon="6.46234">
        <ele>264</ele>
        <time>2023-01-27T14:48:20Z</time>
      </trkpt>
      <trkpt lat="43.50237" lon="6.46223">
        <ele>266</ele>
        <time>2023-01-27T14:48:31Z</time>
      </trkpt>
      <trkpt lat="43.50231" lon="6.46213">
        <ele>267.7</ele>
        <time>2023-01-27T14:48:41Z</time>
      </trkpt>
      <trkpt lat="43.50226" lon="6.46202">
        <ele>269.2</ele>
        <time>2023-01-27T14:48:51Z</time>
      </trkpt>
      <trkpt lat="43.50218" lon="6.46194">
        <ele>270.6</ele>
        <time>2023-01-27T14:49:00Z</time>
      </trkpt>
      <trkpt lat="43.5021" lon="6.46188">
        <ele>271</ele>
        <time>2023-01-27T14:49:09Z</time>
      </trkpt>
      <trkpt lat="43.50201" lon="6.46182">
        <ele>271.4</ele>
        <time>2023-01-27T14:49:19Z</time>
      </trkpt>
      <trkpt lat="43.50192" lon="6.46178">
        <ele>270.9</ele>
        <time>2023-01-27T14:49:35Z</time>
      </trkpt>
      <trkpt lat="43.50184" lon="6.46171">
        <ele>270.5</ele>
        <time>2023-01-27T14:49:45Z</time>
      </trkpt>
      <trkpt lat="43.50177" lon="6.46163">
        <ele>270</ele>
        <time>2023-01-27T14:49:55Z</time>
      </trkpt>
      <trkpt lat="43.50169" lon="6.46155">
        <ele>269.7</ele>
        <time>2023-01-27T14:50:05Z</time>
      </trkpt>
      <trkpt lat="43.50161" lon="6.46147">
        <ele>269.5</ele>
        <time>2023-01-27T14:50:14Z</time>
      </trkpt>
      <trkpt lat="43.50154" lon="6.4614">
        <ele>269</ele>
        <time>2023-01-27T14:50:22Z</time>
      </trkpt>
      <trkpt lat="43.50146" lon="6.46132">
        <ele>268.7</ele>
        <time>2023-01-27T14:50:31Z</time>
      </trkpt>
      <trkpt lat="43.50138" lon="6.46124">
        <ele>268.5</ele>
        <time>2023-01-27T14:50:51Z</time>
      </trkpt>
      <trkpt lat="43.50132" lon="6.46114">
        <ele>268.4</ele>
        <time>2023-01-27T14:51:01Z</time>
      </trkpt>
      <trkpt lat="43.50125" lon="6.46106">
        <ele>268.5</ele>
        <time>2023-01-27T14:51:10Z</time>
      </trkpt>
      <trkpt lat="43.50118" lon="6.46098">
        <ele>267.7</ele>
        <time>2023-01-27T14:51:21Z</time>
      </trkpt>
      <trkpt lat="43.50112" lon="6.46088">
        <ele>267.6</ele>
        <time>2023-01-27T14:51:30Z</time>
      </trkpt>
      <trkpt lat="43.50113" lon="6.46075">
        <ele>267.7</ele>
        <time>2023-01-27T14:51:40Z</time>
      </trkpt>
      <trkpt lat="43.50115" lon="6.46063">
        <ele>268.3</ele>
        <time>2023-01-27T14:51:51Z</time>
      </trkpt>
      <trkpt lat="43.50118" lon="6.4605">
        <ele>268.8</ele>
        <time>2023-01-27T14:52:00Z</time>
      </trkpt>
      <trkpt lat="43.50122" lon="6.46038">
        <ele>269.4</ele>
        <time>2023-01-27T14:52:08Z</time>
      </trkpt>
      <trkpt lat="43.50126" lon="6.46026">
        <ele>269.8</ele>
        <time>2023-01-27T14:52:18Z</time>
      </trkpt>
      <trkpt lat="43.5013" lon="6.46013">
        <ele>270</ele>
        <time>2023-01-27T14:52:27Z</time>
      </trkpt>
      <trkpt lat="43.50131" lon="6.46001">
        <ele>269.4</ele>
        <time>2023-01-27T14:52:53Z</time>
      </trkpt>
      <trkpt lat="43.50127" lon="6.45989">
        <ele>268.7</ele>
        <time>2023-01-27T14:53:59Z</time>
      </trkpt>
      <trkpt lat="43.50122" lon="6.45977">
        <ele>267.5</ele>
        <time>2023-01-27T14:54:09Z</time>
      </trkpt>
      <trkpt lat="43.50116" lon="6.45968">
        <ele>265.6</ele>
        <time>2023-01-27T14:54:15Z</time>
      </trkpt>
      <trkpt lat="43.50108" lon="6.4596">
        <ele>265.3</ele>
        <time>2023-01-27T14:54:22Z</time>
      </trkpt>
      <trkpt lat="43.501" lon="6.45953">
        <ele>263.1</ele>
        <time>2023-01-27T14:54:36Z</time>
      </trkpt>
      <trkpt lat="43.50097" lon="6.45941">
        <ele>261.3</ele>
        <time>2023-01-27T14:54:52Z</time>
      </trkpt>
      <trkpt lat="43.50092" lon="6.45929">
        <ele>259.3</ele>
        <time>2023-01-27T14:55:04Z</time>
      </trkpt>
      <trkpt lat="43.5009" lon="6.45917">
        <ele>257.3</ele>
        <time>2023-01-27T14:55:17Z</time>
      </trkpt>
      <trkpt lat="43.50082" lon="6.45908">
        <ele>255.9</ele>
        <time>2023-01-27T14:55:26Z</time>
      </trkpt>
      <trkpt lat="43.50073" lon="6.45904">
        <ele>254.9</ele>
        <time>2023-01-27T14:55:34Z</time>
      </trkpt>
      <trkpt lat="43.50063" lon="6.45904">
        <ele>254.6</ele>
        <time>2023-01-27T14:55:43Z</time>
      </trkpt>
      <trkpt lat="43.50054" lon="6.45907">
        <ele>254.3</ele>
        <time>2023-01-27T14:55:52Z</time>
      </trkpt>
      <trkpt lat="43.50045" lon="6.45912">
        <ele>253.8</ele>
        <time>2023-01-27T14:56:02Z</time>
      </trkpt>
      <trkpt lat="43.50037" lon="6.45904">
        <ele>251.1</ele>
        <time>2023-01-27T14:56:20Z</time>
      </trkpt>
      <trkpt lat="43.50032" lon="6.45894">
        <ele>249.6</ele>
        <time>2023-01-27T14:56:32Z</time>
      </trkpt>
      <trkpt lat="43.50029" lon="6.45881">
        <ele>248.4</ele>
        <time>2023-01-27T14:56:43Z</time>
      </trkpt>
      <trkpt lat="43.50031" lon="6.45869">
        <ele>247.5</ele>
        <time>2023-01-27T14:56:53Z</time>
      </trkpt>
      <trkpt lat="43.50033" lon="6.45857">
        <ele>246.2</ele>
        <time>2023-01-27T14:57:05Z</time>
      </trkpt>
      <trkpt lat="43.50036" lon="6.45844">
        <ele>245.5</ele>
        <time>2023-01-27T14:57:15Z</time>
      </trkpt>
      <trkpt lat="43.50033" lon="6.45833">
        <ele>244.1</ele>
        <time>2023-01-27T14:57:30Z</time>
      </trkpt>
      <trkpt lat="43.50027" lon="6.45824">
        <ele>242.9</ele>
        <time>2023-01-27T14:57:39Z</time>
      </trkpt>
      <trkpt lat="43.5002" lon="6.45815">
        <ele>242</ele>
        <time>2023-01-27T14:57:49Z</time>
      </trkpt>
      <trkpt lat="43.50013" lon="6.45806">
        <ele>241.5</ele>
        <time>2023-01-27T14:57:58Z</time>
      </trkpt>
      <trkpt lat="43.50006" lon="6.45797">
        <ele>240.8</ele>
        <time>2023-01-27T14:58:08Z</time>
      </trkpt>
      <trkpt lat="43.49997" lon="6.45791">
        <ele>240.2</ele>
        <time>2023-01-27T14:58:17Z</time>
      </trkpt>
      <trkpt lat="43.49989" lon="6.45784">
        <ele>239.8</ele>
        <time>2023-01-27T14:58:25Z</time>
      </trkpt>
      <trkpt lat="43.49982" lon="6.45777">
        <ele>239.4</ele>
        <time>2023-01-27T14:58:34Z</time>
      </trkpt>
      <trkpt lat="43.49973" lon="6.45769">
        <ele>238.8</ele>
        <time>2023-01-27T14:58:43Z</time>
      </trkpt>
      <trkpt lat="43.49965" lon="6.45763">
        <ele>238.4</ele>
        <time>2023-01-27T14:58:51Z</time>
      </trkpt>
      <trkpt lat="43.49956" lon="6.45756">
        <ele>238.1</ele>
        <time>2023-01-27T14:58:59Z</time>
      </trkpt>
      <trkpt lat="43.49949" lon="6.45748">
        <ele>237.5</ele>
        <time>2023-01-27T14:59:08Z</time>
      </trkpt>
      <trkpt lat="43.49941" lon="6.45741">
        <ele>236.8</ele>
        <time>2023-01-27T14:59:18Z</time>
      </trkpt>
      <trkpt lat="43.49932" lon="6.45733">
        <ele>236.5</ele>
        <time>2023-01-27T14:59:26Z</time>
      </trkpt>
      <trkpt lat="43.49924" lon="6.45726">
        <ele>235.9</ele>
        <time>2023-01-27T14:59:35Z</time>
      </trkpt>
      <trkpt lat="43.49916" lon="6.45719">
        <ele>235.3</ele>
        <time>2023-01-27T14:59:43Z</time>
      </trkpt>
      <trkpt lat="43.49915" lon="6.45705">
        <ele>234.4</ele>
        <time>2023-01-27T14:59:55Z</time>
      </trkpt>
      <trkpt lat="43.49918" lon="6.45693">
        <ele>233.7</ele>
        <time>2023-01-27T15:00:07Z</time>
      </trkpt>
      <trkpt lat="43.49922" lon="6.45682">
        <ele>233.5</ele>
        <time>2023-01-27T15:00:17Z</time>
      </trkpt>
      <trkpt lat="43.49927" lon="6.4567">
        <ele>233</ele>
        <time>2023-01-27T15:00:27Z</time>
      </trkpt>
      <trkpt lat="43.49932" lon="6.4566">
        <ele>231.5</ele>
        <time>2023-01-27T15:00:40Z</time>
      </trkpt>
      <trkpt lat="43.49937" lon="6.45648">
        <ele>230.5</ele>
        <time>2023-01-27T15:00:50Z</time>
      </trkpt>
      <trkpt lat="43.49942" lon="6.45637">
        <ele>229.8</ele>
        <time>2023-01-27T15:00:58Z</time>
      </trkpt>
      <trkpt lat="43.49946" lon="6.45625">
        <ele>229.2</ele>
        <time>2023-01-27T15:01:08Z</time>
      </trkpt>
      <trkpt lat="43.49951" lon="6.45614">
        <ele>227.7</ele>
        <time>2023-01-27T15:01:18Z</time>
      </trkpt>
      <trkpt lat="43.49957" lon="6.45603">
        <ele>226.6</ele>
        <time>2023-01-27T15:01:29Z</time>
      </trkpt>
      <trkpt lat="43.49963" lon="6.45593">
        <ele>226.1</ele>
        <time>2023-01-27T15:01:37Z</time>
      </trkpt>
      <trkpt lat="43.49972" lon="6.45599">
        <ele>225.9</ele>
        <time>2023-01-27T15:01:50Z</time>
      </trkpt>
      <trkpt lat="43.4998" lon="6.45606">
        <ele>225.2</ele>
        <time>2023-01-27T15:02:01Z</time>
      </trkpt>
      <trkpt lat="43.49986" lon="6.45615">
        <ele>224.3</ele>
        <time>2023-01-27T15:02:12Z</time>
      </trkpt>
      <trkpt lat="43.49993" lon="6.45623">
        <ele>223.7</ele>
        <time>2023-01-27T15:02:28Z</time>
      </trkpt>
      <trkpt lat="43.50001" lon="6.4563">
        <ele>223.8</ele>
        <time>2023-01-27T15:02:59Z</time>
      </trkpt>
      <trkpt lat="43.50007" lon="6.4564">
        <ele>223.8</ele>
        <time>2023-01-27T15:03:23Z</time>
      </trkpt>
      <trkpt lat="43.50013" lon="6.45651">
        <ele>223.6</ele>
        <time>2023-01-27T15:03:33Z</time>
      </trkpt>
      <trkpt lat="43.5002" lon="6.45659">
        <ele>224.2</ele>
        <time>2023-01-27T15:03:49Z</time>
      </trkpt>
      <trkpt lat="43.50028" lon="6.45653">
        <ele>224.3</ele>
        <time>2023-01-27T15:04:03Z</time>
      </trkpt>
      <trkpt lat="43.50034" lon="6.45642">
        <ele>223.8</ele>
        <time>2023-01-27T15:04:18Z</time>
      </trkpt>
      <trkpt lat="43.5004" lon="6.45632">
        <ele>223.3</ele>
        <time>2023-01-27T15:04:29Z</time>
      </trkpt>
      <trkpt lat="43.50046" lon="6.45623">
        <ele>223</ele>
        <time>2023-01-27T15:04:42Z</time>
      </trkpt>
      <trkpt lat="43.50053" lon="6.45613">
        <ele>222.8</ele>
        <time>2023-01-27T15:04:55Z</time>
      </trkpt>
      <trkpt lat="43.5006" lon="6.45605">
        <ele>222.3</ele>
        <time>2023-01-27T15:05:06Z</time>
      </trkpt>
      <trkpt lat="43.50067" lon="6.45596">
        <ele>221.8</ele>
        <time>2023-01-27T15:05:16Z</time>
      </trkpt>
      <trkpt lat="43.50074" lon="6.45588">
        <ele>222.5</ele>
        <time>2023-01-27T15:05:25Z</time>
      </trkpt>
      <trkpt lat="43.50081" lon="6.45579">
        <ele>223.1</ele>
        <time>2023-01-27T15:05:35Z</time>
      </trkpt>
      <trkpt lat="43.50089" lon="6.45572">
        <ele>223.3</ele>
        <time>2023-01-27T15:05:44Z</time>
      </trkpt>
      <trkpt lat="43.50095" lon="6.45563">
        <ele>224.2</ele>
        <time>2023-01-27T15:05:59Z</time>
      </trkpt>
      <trkpt lat="43.50105" lon="6.45562">
        <ele>225.4</ele>
        <time>2023-01-27T15:06:17Z</time>
      </trkpt>
      <trkpt lat="43.50112" lon="6.45555">
        <ele>226.8</ele>
        <time>2023-01-27T15:07:02Z</time>
      </trkpt>
      <trkpt lat="43.50114" lon="6.45543">
        <ele>225.7</ele>
        <time>2023-01-27T15:07:38Z</time>
      </trkpt>
      <trkpt lat="43.50105" lon="6.45538">
        <ele>224.7</ele>
        <time>2023-01-27T15:10:45Z</time>
      </trkpt>
      <trkpt lat="43.50115" lon="6.45538">
        <ele>223.2</ele>
        <time>2023-01-27T15:13:26Z</time>
      </trkpt>
      <trkpt lat="43.50123" lon="6.45534">
        <ele>223.2</ele>
        <time>2023-01-27T15:13:43Z</time>
      </trkpt>
      <trkpt lat="43.50132" lon="6.45529">
        <ele>222.6</ele>
        <time>2023-01-27T15:14:03Z</time>
      </trkpt>
      <trkpt lat="43.5014" lon="6.45524">
        <ele>221.5</ele>
        <time>2023-01-27T15:14:18Z</time>
      </trkpt>
      <trkpt lat="43.50149" lon="6.45518">
        <ele>220</ele>
        <time>2023-01-27T15:14:30Z</time>
      </trkpt>
      <trkpt lat="43.50157" lon="6.45513">
        <ele>218.9</ele>
        <time>2023-01-27T15:14:41Z</time>
      </trkpt>
      <trkpt lat="43.50166" lon="6.4551">
        <ele>217.7</ele>
        <time>2023-01-27T15:14:55Z</time>
      </trkpt>
      <trkpt lat="43.50175" lon="6.45506">
        <ele>217.1</ele>
        <time>2023-01-27T15:15:08Z</time>
      </trkpt>
      <trkpt lat="43.50185" lon="6.45502">
        <ele>216.6</ele>
        <time>2023-01-27T15:15:18Z</time>
      </trkpt>
      <trkpt lat="43.50194" lon="6.45499">
        <ele>215.7</ele>
        <time>2023-01-27T15:15:30Z</time>
      </trkpt>
      <trkpt lat="43.50203" lon="6.45499">
        <ele>215.2</ele>
        <time>2023-01-27T15:15:41Z</time>
      </trkpt>
      <trkpt lat="43.50212" lon="6.45499">
        <ele>214.9</ele>
        <time>2023-01-27T15:15:50Z</time>
      </trkpt>
      <trkpt lat="43.50222" lon="6.45498">
        <ele>214.5</ele>
        <time>2023-01-27T15:16:02Z</time>
      </trkpt>
      <trkpt lat="43.50231" lon="6.45494">
        <ele>214.8</ele>
        <time>2023-01-27T15:16:14Z</time>
      </trkpt>
      <trkpt lat="43.5024" lon="6.45491">
        <ele>214.9</ele>
        <time>2023-01-27T15:16:23Z</time>
      </trkpt>
      <trkpt lat="43.5025" lon="6.45486">
        <ele>215</ele>
        <time>2023-01-27T15:16:33Z</time>
      </trkpt>
      <trkpt lat="43.50259" lon="6.45484">
        <ele>215.2</ele>
        <time>2023-01-27T15:16:42Z</time>
      </trkpt>
      <trkpt lat="43.50268" lon="6.45479">
        <ele>215.7</ele>
        <time>2023-01-27T15:16:49Z</time>
      </trkpt>
      <trkpt lat="43.50275" lon="6.45471">
        <ele>216.1</ele>
        <time>2023-01-27T15:16:57Z</time>
      </trkpt>
      <trkpt lat="43.50283" lon="6.45463">
        <ele>216.3</ele>
        <time>2023-01-27T15:17:08Z</time>
      </trkpt>
      <trkpt lat="43.50292" lon="6.4546">
        <ele>216.4</ele>
        <time>2023-01-27T15:17:22Z</time>
      </trkpt>
      <trkpt lat="43.50301" lon="6.45457">
        <ele>216.4</ele>
        <time>2023-01-27T15:17:33Z</time>
      </trkpt>
      <trkpt lat="43.50308" lon="6.45448">
        <ele>216.2</ele>
        <time>2023-01-27T15:17:42Z</time>
      </trkpt>
      <trkpt lat="43.50315" lon="6.45439">
        <ele>215.9</ele>
        <time>2023-01-27T15:18:20Z</time>
      </trkpt>
      <trkpt lat="43.50321" lon="6.4543">
        <ele>214.6</ele>
        <time>2023-01-27T15:19:14Z</time>
      </trkpt>
      <trkpt lat="43.50331" lon="6.45428">
        <ele>212.5</ele>
        <time>2023-01-27T15:22:31Z</time>
      </trkpt>
      <trkpt lat="43.50341" lon="6.45427">
        <ele>212.5</ele>
        <time>2023-01-27T15:22:40Z</time>
      </trkpt>
      <trkpt lat="43.5035" lon="6.45424">
        <ele>212.1</ele>
        <time>2023-01-27T15:22:51Z</time>
      </trkpt>
      <trkpt lat="43.50358" lon="6.45417">
        <ele>210.7</ele>
        <time>2023-01-27T15:23:01Z</time>
      </trkpt>
      <trkpt lat="43.50367" lon="6.45415">
        <ele>209.6</ele>
        <time>2023-01-27T15:23:10Z</time>
      </trkpt>
      <trkpt lat="43.50376" lon="6.4541">
        <ele>208.1</ele>
        <time>2023-01-27T15:23:19Z</time>
      </trkpt>
      <trkpt lat="43.50385" lon="6.45404">
        <ele>206.5</ele>
        <time>2023-01-27T15:23:27Z</time>
      </trkpt>
      <trkpt lat="43.50393" lon="6.45398">
        <ele>205.2</ele>
        <time>2023-01-27T15:23:36Z</time>
      </trkpt>
      <trkpt lat="43.50402" lon="6.45402">
        <ele>204.4</ele>
        <time>2023-01-27T15:23:46Z</time>
      </trkpt>
      <trkpt lat="43.50411" lon="6.45403">
        <ele>203.9</ele>
        <time>2023-01-27T15:24:09Z</time>
      </trkpt>
      <trkpt lat="43.50421" lon="6.45402">
        <ele>203.6</ele>
        <time>2023-01-27T15:24:18Z</time>
      </trkpt>
      <trkpt lat="43.5043" lon="6.45401">
        <ele>203.4</ele>
        <time>2023-01-27T15:24:27Z</time>
      </trkpt>
      <trkpt lat="43.50438" lon="6.45406">
        <ele>203.2</ele>
        <time>2023-01-27T15:24:38Z</time>
      </trkpt>
      <trkpt lat="43.50447" lon="6.45407">
        <ele>203.6</ele>
        <time>2023-01-27T15:24:51Z</time>
      </trkpt>
      <trkpt lat="43.50447" lon="6.45407">
        <ele>203.6</ele>
        <time>2023-01-27T15:24:51Z</time>
      </trkpt>
      <trkpt lat="43.50448" lon="6.45406">
        <ele>203.6</ele>
        <time>2023-01-27T15:24:52Z</time>
      </trkpt>
    </trkseg>
  </trk>
</gpx>